Time,TemperatureF,DewpointF,PressureIn,WindDirection,WindDirectionDegrees,WindSpeedMPH,WindSpeedGustMPH,Humidity,HourlyPrecipIn,Conditions,Clouds,dailyrainin,SoftwareType,DateUTC
2013-08-29 00:01:00,76.2,64.9,29.96,WSW,248,0.0,0.0,68,0.00,,---,0.00,VWS V14.01,2013-08-29 04:01:00,
2013-08-29 00:02:00,76.2,64.9,29.96,WSW,248,0.0,0.0,68,0.00,,---,0.00,VWS V14.01,2013-08-29 04:02:00,
2013-08-29 00:05:00,76.2,65.3,29.95,WSW,248,0.0,0.0,69,0.00,,---,0.00,VWS V14.01,2013-08-29 04:05:00,
2013-08-29 00:06:00,76.2,65.3,29.95,WSW,248,0.0,0.0,69,0.00,,---,0.00,VWS V14.01,2013-08-29 04:06:00,
2013-08-29 00:07:00,76.2,65.3,29.95,WSW,248,0.0,0.0,69,0.00,,---,0.00,VWS V14.01,2013-08-29 04:07:00,
2013-08-29 00:11:00,76.0,65.1,29.95,WSW,248,0.0,0.0,69,0.00,,---,0.00,VWS V14.01,2013-08-29 04:11:00,
2013-08-29 00:12:00,76.0,65.1,29.95,WSW,248,0.0,0.0,69,0.00,,---,0.00,VWS V14.01,2013-08-29 04:12:00,
2013-08-29 00:13:00,76.0,65.1,29.95,WSW,248,0.0,0.0,69,0.00,,---,0.00,VWS V14.01,2013-08-29 04:13:00,
2013-08-29 00:17:00,76.0,65.1,29.94,WSW,248,0.0,0.0,69,0.00,,---,0.00,VWS V14.01,2013-08-29 04:17:00,
2013-08-29 00:18:00,75.9,65.4,29.94,WSW,248,0.0,0.0,70,0.00,,---,0.00,VWS V14.01,2013-08-29 04:18:00,
2013-08-29 00:19:00,75.9,65.4,29.94,WSW,248,0.0,0.0,70,0.00,,---,0.00,VWS V14.01,2013-08-29 04:19:00,
2013-08-29 00:22:00,76.0,65.5,29.94,WSW,248,0.0,0.0,70,0.00,,---,0.00,VWS V14.01,2013-08-29 04:22:00,
2013-08-29 00:23:00,76.0,65.5,29.94,WSW,248,0.0,0.0,70,0.00,,---,0.00,VWS V14.01,2013-08-29 04:23:00,
2013-08-29 00:27:00,76.0,65.5,29.93,WSW,248,0.0,0.0,70,0.00,,---,0.00,VWS V14.01,2013-08-29 04:27:00,
2013-08-29 00:28:00,75.9,65.8,29.93,WSW,248,0.0,0.0,71,0.00,,---,0.00,VWS V14.01,2013-08-29 04:28:00,
2013-08-29 00:32:00,75.9,65.8,29.93,WSW,248,0.0,0.0,71,0.00,,---,0.00,VWS V14.01,2013-08-29 04:32:00,
2013-08-29 00:33:00,75.9,65.8,29.94,WSW,248,0.0,0.0,71,0.00,,---,0.00,VWS V14.01,2013-08-29 04:33:00,
2013-08-29 00:35:00,75.9,65.8,29.94,WSW,248,0.0,0.0,71,0.00,,---,0.00,VWS V14.01,2013-08-29 04:35:00,
2013-08-29 00:37:00,75.9,65.8,29.94,WSW,248,0.0,0.0,71,0.00,,---,0.00,VWS V14.01,2013-08-29 04:37:00,
2013-08-29 00:38:00,75.9,65.8,29.94,WSW,248,0.0,0.0,71,0.00,,---,0.00,VWS V14.01,2013-08-29 04:38:00,
2013-08-29 00:39:00,75.9,66.2,29.94,WSW,248,0.0,0.0,72,0.00,,---,0.00,VWS V14.01,2013-08-29 04:39:00,
2013-08-29 00:40:00,75.9,66.2,29.94,WSW,248,0.0,0.0,72,0.00,,---,0.00,VWS V14.01,2013-08-29 04:40:00,
2013-08-29 00:42:00,75.9,66.2,29.94,WSW,248,0.0,0.0,72,0.00,,---,0.00,VWS V14.01,2013-08-29 04:42:00,
2013-08-29 00:43:00,75.7,66.0,29.93,WSW,248,0.0,0.0,72,0.00,,---,0.00,VWS V14.01,2013-08-29 04:43:00,
2013-08-29 00:44:00,75.7,66.0,29.93,WSW,248,0.0,0.0,72,0.00,,---,0.00,VWS V14.01,2013-08-29 04:44:00,
2013-08-29 00:45:00,75.1,65.5,29.94,WSW,248,0.0,0.0,72,0.00,,---,0.00,VWS V14.01,2013-08-29 04:45:00,
2013-08-29 00:48:00,75.3,66.1,29.93,WSW,248,0.0,0.0,73,0.00,,---,0.00,VWS V14.01,2013-08-29 04:48:00,
2013-08-29 00:49:00,75.3,66.1,29.93,WSW,248,0.0,0.0,73,0.00,,---,0.00,VWS V14.01,2013-08-29 04:49:00,
2013-08-29 00:51:00,75.3,66.1,29.93,WSW,248,0.0,0.0,73,0.00,,---,0.00,VWS V14.01,2013-08-29 04:51:00,
2013-08-29 00:53:00,75.3,66.1,29.93,WSW,248,0.0,0.0,73,0.00,,---,0.00,VWS V14.01,2013-08-29 04:53:00,
2013-08-29 00:54:00,74.8,65.2,29.93,WSW,248,0.0,0.0,72,0.00,,---,0.00,VWS V14.01,2013-08-29 04:54:00,
2013-08-29 00:55:00,74.8,65.2,29.93,WSW,248,0.0,0.0,72,0.00,,---,0.00,VWS V14.01,2013-08-29 04:55:00,
2013-08-29 00:56:00,75.3,66.1,29.93,WSW,248,0.0,0.0,73,0.00,,---,0.00,VWS V14.01,2013-08-29 04:56:00,
2013-08-29 00:57:00,75.3,66.1,29.93,WSW,248,0.0,0.0,73,0.00,,---,0.00,VWS V14.01,2013-08-29 04:57:00,
2013-08-29 00:58:00,75.1,65.9,29.93,WSW,248,0.0,0.0,73,0.00,,---,0.00,VWS V14.01,2013-08-29 04:58:00,
2013-08-29 00:59:00,75.1,65.9,29.93,WSW,248,0.0,0.0,73,0.00,,---,0.00,VWS V14.01,2013-08-29 04:59:00,
2013-08-29 01:00:00,75.1,65.9,29.93,WSW,248,0.0,0.0,73,0.00,,---,0.00,VWS V14.01,2013-08-29 05:00:00,
2013-08-29 01:01:00,75.1,65.9,29.93,WSW,248,0.0,0.0,73,0.00,,---,0.00,VWS V14.01,2013-08-29 05:01:00,
2013-08-29 01:03:00,75.1,65.9,29.93,WSW,248,0.0,0.0,73,0.00,,---,0.00,VWS V14.01,2013-08-29 05:03:00,
2013-08-29 01:04:00,75.1,65.9,29.93,WSW,248,0.0,0.0,73,0.00,,---,0.00,VWS V14.01,2013-08-29 05:04:00,
2013-08-29 01:05:00,75.1,65.9,29.93,WSW,248,0.0,0.0,73,0.00,,---,0.00,VWS V14.01,2013-08-29 05:05:00,
2013-08-29 01:06:00,75.1,65.9,29.93,WSW,248,0.0,0.0,73,0.00,,---,0.00,VWS V14.01,2013-08-29 05:06:00,
2013-08-29 01:08:00,75.1,65.9,29.93,WSW,248,0.0,0.0,73,0.00,,---,0.00,VWS V14.01,2013-08-29 05:08:00,
2013-08-29 01:09:00,75.1,65.9,29.93,WSW,248,0.0,0.0,73,0.00,,---,0.00,VWS V14.01,2013-08-29 05:09:00,
2013-08-29 01:10:00,75.1,65.9,29.93,WSW,248,0.0,0.0,73,0.00,,---,0.00,VWS V14.01,2013-08-29 05:10:00,
2013-08-29 01:11:00,75.1,66.2,29.93,WSW,248,0.0,0.0,74,0.00,,---,0.00,VWS V14.01,2013-08-29 05:11:00,
2013-08-29 01:15:00,75.3,66.4,29.93,WSW,248,0.0,0.0,74,0.00,,---,0.00,VWS V14.01,2013-08-29 05:15:00,
2013-08-29 01:16:00,75.3,66.4,29.93,WSW,248,0.0,0.0,74,0.00,,---,0.00,VWS V14.01,2013-08-29 05:16:00,
2013-08-29 01:17:00,75.3,66.4,29.93,WSW,248,0.0,0.0,74,0.00,,---,0.00,VWS V14.01,2013-08-29 05:17:00,
2013-08-29 01:20:00,75.3,66.4,29.93,WSW,248,0.0,0.0,74,0.00,,---,0.00,VWS V14.01,2013-08-29 05:20:00,
2013-08-29 01:21:00,75.3,66.4,29.93,WSW,248,0.0,0.0,74,0.00,,---,0.00,VWS V14.01,2013-08-29 05:21:00,
2013-08-29 01:22:00,75.1,66.2,29.93,WSW,248,0.0,0.0,74,0.00,,---,0.00,VWS V14.01,2013-08-29 05:22:00,
2013-08-29 01:25:00,74.6,65.8,29.93,WSW,248,0.0,0.0,74,0.00,,---,0.00,VWS V14.01,2013-08-29 05:25:00,
2013-08-29 01:26:00,74.6,65.8,29.93,WSW,248,0.0,0.0,74,0.00,,---,0.00,VWS V14.01,2013-08-29 05:26:00,
2013-08-29 01:27:00,75.3,66.4,29.93,WSW,248,0.0,0.0,74,0.00,,---,0.00,VWS V14.01,2013-08-29 05:27:00,
2013-08-29 01:28:00,75.1,66.2,29.93,WSW,248,0.0,0.0,74,0.00,,---,0.00,VWS V14.01,2013-08-29 05:28:00,
2013-08-29 01:31:00,75.1,66.2,29.94,WSW,248,0.0,0.0,74,0.00,,---,0.00,VWS V14.01,2013-08-29 05:31:00,
2013-08-29 01:33:00,75.1,66.6,29.93,WSW,248,0.0,0.0,75,0.00,,---,0.00,VWS V14.01,2013-08-29 05:33:00,
2013-08-29 01:34:00,75.1,66.6,29.94,WSW,248,0.0,0.0,75,0.00,,---,0.00,VWS V14.01,2013-08-29 05:34:00,
2013-08-29 01:36:00,74.8,66.3,29.94,WSW,248,0.0,0.0,75,0.00,,---,0.00,VWS V14.01,2013-08-29 05:36:00,
2013-08-29 01:38:00,74.8,66.3,29.93,WSW,248,0.0,0.0,75,0.00,,---,0.00,VWS V14.01,2013-08-29 05:38:00,
2013-08-29 01:39:00,74.6,66.2,29.94,WSW,248,0.0,0.0,75,0.00,,---,0.00,VWS V14.01,2013-08-29 05:39:00,
2013-08-29 01:41:00,74.6,66.2,29.94,WSW,248,0.0,0.0,75,0.00,,---,0.00,VWS V14.01,2013-08-29 05:41:00,
2013-08-29 01:42:00,74.6,66.2,29.94,WSW,248,0.0,0.0,75,0.00,,---,0.00,VWS V14.01,2013-08-29 05:42:00,
2013-08-29 01:43:00,74.6,66.2,29.94,WSW,248,0.0,0.0,75,0.00,,---,0.00,VWS V14.01,2013-08-29 05:43:00,
2013-08-29 01:44:00,75.1,67.0,29.93,WSW,248,0.0,0.0,76,0.00,,---,0.00,VWS V14.01,2013-08-29 05:44:00,
2013-08-29 01:46:00,75.1,67.0,29.93,WSW,248,0.0,0.0,76,0.00,,---,0.00,VWS V14.01,2013-08-29 05:46:00,
2013-08-29 01:47:00,74.8,66.7,29.93,WSW,248,0.0,0.0,76,0.00,,---,0.00,VWS V14.01,2013-08-29 05:47:00,
2013-08-29 01:48:00,74.8,66.7,29.93,WSW,248,0.0,0.0,76,0.00,,---,0.00,VWS V14.01,2013-08-29 05:48:00,
2013-08-29 01:50:00,75.1,67.0,29.93,WSW,248,0.0,0.0,76,0.00,,---,0.00,VWS V14.01,2013-08-29 05:50:00,
2013-08-29 01:52:00,75.1,67.0,29.93,WSW,248,0.0,0.0,76,0.00,,---,0.00,VWS V14.01,2013-08-29 05:52:00,
2013-08-29 01:53:00,75.1,67.0,29.93,WSW,248,0.0,0.0,76,0.00,,---,0.00,VWS V14.01,2013-08-29 05:53:00,
2013-08-29 01:54:00,75.1,67.0,29.93,WSW,248,0.0,0.0,76,0.00,,---,0.00,VWS V14.01,2013-08-29 05:54:00,
2013-08-29 01:56:00,75.1,67.0,29.93,WSW,248,0.0,0.0,76,0.00,,---,0.00,VWS V14.01,2013-08-29 05:56:00,
2013-08-29 01:57:00,75.1,67.0,29.93,WSW,248,0.0,0.0,76,0.00,,---,0.00,VWS V14.01,2013-08-29 05:57:00,
2013-08-29 01:58:00,75.3,67.2,29.93,WSW,248,0.0,0.0,76,0.00,,---,0.00,VWS V14.01,2013-08-29 05:58:00,
2013-08-29 01:59:00,75.3,67.2,29.93,WSW,248,0.0,0.0,76,0.00,,---,0.00,VWS V14.01,2013-08-29 05:59:00,
2013-08-29 02:00:00,75.3,67.2,29.93,WSW,248,0.0,0.0,76,0.00,,---,0.00,VWS V14.01,2013-08-29 06:00:00,
2013-08-29 02:01:00,75.3,67.2,29.93,WSW,248,0.0,0.0,76,0.00,,---,0.00,VWS V14.01,2013-08-29 06:01:00,
2013-08-29 02:02:00,75.3,67.2,29.93,WSW,248,0.0,0.0,76,0.00,,---,0.00,VWS V14.01,2013-08-29 06:02:00,
2013-08-29 02:03:00,75.3,67.2,29.93,WSW,248,0.0,0.0,76,0.00,,---,0.00,VWS V14.01,2013-08-29 06:03:00,
2013-08-29 02:04:00,75.3,67.2,29.93,WSW,248,0.0,0.0,76,0.00,,---,0.00,VWS V14.01,2013-08-29 06:04:00,
2013-08-29 02:05:00,75.3,67.2,29.93,WSW,248,0.0,0.0,76,0.00,,---,0.00,VWS V14.01,2013-08-29 06:05:00,
2013-08-29 02:06:00,75.3,67.2,29.93,WSW,248,0.0,0.0,76,0.00,,---,0.00,VWS V14.01,2013-08-29 06:06:00,
2013-08-29 02:08:00,75.3,67.2,29.93,WSW,248,0.0,0.0,76,0.00,,---,0.00,VWS V14.01,2013-08-29 06:08:00,
2013-08-29 02:09:00,75.3,67.2,29.94,WSW,248,0.0,0.0,76,0.00,,---,0.00,VWS V14.01,2013-08-29 06:09:00,
2013-08-29 02:10:00,75.1,67.0,29.94,WSW,248,0.0,0.0,76,0.00,,---,0.00,VWS V14.01,2013-08-29 06:10:00,
2013-08-29 02:11:00,75.1,67.0,29.94,WSW,248,0.0,0.0,76,0.00,,---,0.00,VWS V14.01,2013-08-29 06:11:00,
2013-08-29 02:13:00,75.1,67.0,29.94,WSW,248,0.0,0.0,76,0.00,,---,0.00,VWS V14.01,2013-08-29 06:13:00,
2013-08-29 02:14:00,75.1,67.0,29.94,WSW,248,0.0,0.0,76,0.00,,---,0.00,VWS V14.01,2013-08-29 06:14:00,
2013-08-29 02:15:00,75.1,67.0,29.93,WSW,248,0.0,0.0,76,0.00,,---,0.00,VWS V14.01,2013-08-29 06:15:00,
2013-08-29 02:17:00,75.1,67.0,29.93,WSW,248,0.0,0.0,76,0.00,,---,0.00,VWS V14.01,2013-08-29 06:17:00,
2013-08-29 02:18:00,75.1,67.0,29.93,WSW,248,0.0,0.0,76,0.00,,---,0.00,VWS V14.01,2013-08-29 06:18:00,
2013-08-29 02:19:00,75.3,67.2,29.93,WSW,248,0.0,0.0,76,0.00,,---,0.00,VWS V14.01,2013-08-29 06:19:00,
2013-08-29 02:20:00,75.3,67.2,29.93,WSW,248,0.0,0.0,76,0.00,,---,0.00,VWS V14.01,2013-08-29 06:20:00,
2013-08-29 02:21:00,75.3,67.2,29.94,WSW,248,0.0,0.0,76,0.00,,---,0.00,VWS V14.01,2013-08-29 06:21:00,
2013-08-29 02:22:00,75.3,67.2,29.93,WSW,248,0.0,0.0,76,0.00,,---,0.00,VWS V14.01,2013-08-29 06:22:00,
2013-08-29 02:24:00,75.3,67.2,29.93,WSW,248,0.0,0.0,76,0.00,,---,0.00,VWS V14.01,2013-08-29 06:24:00,
2013-08-29 02:25:00,75.3,67.2,29.93,WSW,248,0.0,0.0,76,0.00,,---,0.00,VWS V14.01,2013-08-29 06:25:00,
2013-08-29 02:27:00,75.3,67.2,29.93,WSW,248,0.0,0.0,76,0.00,,---,0.00,VWS V14.01,2013-08-29 06:27:00,
2013-08-29 02:29:00,75.1,67.0,29.93,WSW,248,0.0,0.0,76,0.00,,---,0.00,VWS V14.01,2013-08-29 06:29:00,
2013-08-29 02:31:00,75.1,67.0,29.93,WSW,248,0.0,0.0,76,0.00,,---,0.00,VWS V14.01,2013-08-29 06:31:00,
2013-08-29 02:32:00,75.3,67.2,29.93,WSW,248,0.0,0.0,76,0.00,,---,0.00,VWS V14.01,2013-08-29 06:32:00,
2013-08-29 02:34:00,75.1,67.0,29.93,WSW,248,0.0,0.0,76,0.00,,---,0.00,VWS V14.01,2013-08-29 06:34:00,
2013-08-29 02:35:00,75.1,67.0,29.93,WSW,248,0.0,0.0,76,0.00,,---,0.00,VWS V14.01,2013-08-29 06:35:00,
2013-08-29 02:36:00,74.8,66.7,29.93,WSW,248,0.0,0.0,76,0.00,,---,0.00,VWS V14.01,2013-08-29 06:36:00,
2013-08-29 02:37:00,74.8,66.7,29.93,WSW,248,0.0,0.0,76,0.00,,---,0.00,VWS V14.01,2013-08-29 06:37:00,
2013-08-29 02:38:00,75.1,67.0,29.93,WSW,248,0.0,0.0,76,0.00,,---,0.00,VWS V14.01,2013-08-29 06:38:00,
2013-08-29 02:39:00,75.1,67.0,29.93,WSW,248,0.0,0.0,76,0.00,,---,0.00,VWS V14.01,2013-08-29 06:39:00,
2013-08-29 02:40:00,75.1,67.0,29.93,WSW,248,0.0,0.0,76,0.00,,---,0.00,VWS V14.01,2013-08-29 06:40:00,
2013-08-29 02:41:00,74.8,66.7,29.93,WSW,248,0.0,0.0,76,0.00,,---,0.00,VWS V14.01,2013-08-29 06:41:00,
2013-08-29 02:42:00,74.8,66.7,29.93,WSW,248,0.0,0.0,76,0.00,,---,0.00,VWS V14.01,2013-08-29 06:42:00,
2013-08-29 02:43:00,75.1,67.4,29.93,WSW,248,0.0,0.0,77,0.00,,---,0.00,VWS V14.01,2013-08-29 06:43:00,
2013-08-29 02:45:00,75.1,67.4,29.93,WSW,248,0.0,0.0,77,0.00,,---,0.00,VWS V14.01,2013-08-29 06:45:00,
2013-08-29 02:46:00,75.1,67.4,29.93,WSW,248,0.0,0.0,77,0.00,,---,0.00,VWS V14.01,2013-08-29 06:46:00,
2013-08-29 02:47:00,75.1,67.4,29.93,WSW,248,0.0,0.0,77,0.00,,---,0.00,VWS V14.01,2013-08-29 06:47:00,
2013-08-29 02:48:00,75.1,67.4,29.93,WSW,248,0.0,0.0,77,0.00,,---,0.00,VWS V14.01,2013-08-29 06:48:00,
2013-08-29 02:50:00,75.0,67.3,29.93,WSW,248,0.0,0.0,77,0.00,,---,0.00,VWS V14.01,2013-08-29 06:50:00,
2013-08-29 02:51:00,75.0,67.3,29.93,WSW,248,0.0,0.0,77,0.00,,---,0.00,VWS V14.01,2013-08-29 06:51:00,
2013-08-29 02:53:00,74.6,66.9,29.93,WSW,248,0.0,0.0,77,0.00,,---,0.00,VWS V14.01,2013-08-29 06:53:00,
2013-08-29 02:55:00,74.6,66.9,29.93,WSW,248,0.0,0.0,77,0.00,,---,0.00,VWS V14.01,2013-08-29 06:55:00,
2013-08-29 02:56:00,74.8,67.1,29.93,WSW,248,0.0,0.0,77,0.00,,---,0.00,VWS V14.01,2013-08-29 06:56:00,
2013-08-29 02:57:00,74.8,67.1,29.93,WSW,248,0.0,0.0,77,0.00,,---,0.00,VWS V14.01,2013-08-29 06:57:00,
2013-08-29 02:58:00,74.6,66.9,29.93,WSW,248,0.0,0.0,77,0.00,,---,0.00,VWS V14.01,2013-08-29 06:58:00,
2013-08-29 02:59:00,74.6,66.9,29.93,WSW,248,0.0,0.0,77,0.00,,---,0.00,VWS V14.01,2013-08-29 06:59:00,
2013-08-29 03:01:00,74.6,66.9,29.93,WSW,248,0.0,0.0,77,0.00,,---,0.00,VWS V14.01,2013-08-29 07:01:00,
2013-08-29 03:02:00,74.8,67.5,29.93,WSW,248,0.0,0.0,78,0.00,,---,0.00,VWS V14.01,2013-08-29 07:02:00,
2013-08-29 03:03:00,74.8,67.5,29.93,WSW,248,0.0,0.0,78,0.00,,---,0.00,VWS V14.01,2013-08-29 07:03:00,
2013-08-29 03:04:00,75.0,67.7,29.93,WSW,248,0.0,0.0,78,0.00,,---,0.00,VWS V14.01,2013-08-29 07:04:00,
2013-08-29 03:06:00,74.6,67.3,29.93,WSW,248,0.0,0.0,78,0.00,,---,0.00,VWS V14.01,2013-08-29 07:06:00,
2013-08-29 03:07:00,74.6,67.3,29.93,WSW,248,0.0,0.0,78,0.00,,---,0.00,VWS V14.01,2013-08-29 07:07:00,
2013-08-29 03:08:00,74.6,67.3,29.93,WSW,248,0.0,0.0,78,0.00,,---,0.00,VWS V14.01,2013-08-29 07:08:00,
2013-08-29 03:09:00,74.6,67.3,29.93,WSW,248,0.0,0.0,78,0.00,,---,0.00,VWS V14.01,2013-08-29 07:09:00,
2013-08-29 03:11:00,74.8,67.5,29.93,WSW,248,0.0,0.0,78,0.00,,---,0.00,VWS V14.01,2013-08-29 07:11:00,
2013-08-29 03:13:00,74.8,67.5,29.94,WSW,248,0.0,0.0,78,0.00,,---,0.00,VWS V14.01,2013-08-29 07:13:00,
2013-08-29 03:15:00,74.8,67.5,29.93,WSW,248,0.0,0.0,78,0.00,,---,0.00,VWS V14.01,2013-08-29 07:15:00,
2013-08-29 03:16:00,74.8,67.5,29.93,WSW,248,0.0,0.0,78,0.00,,---,0.00,VWS V14.01,2013-08-29 07:16:00,
2013-08-29 03:17:00,74.8,67.5,29.93,WSW,248,0.0,0.0,78,0.00,,---,0.00,VWS V14.01,2013-08-29 07:17:00,
2013-08-29 03:18:00,74.8,67.5,29.93,WSW,248,0.0,0.0,78,0.00,,---,0.00,VWS V14.01,2013-08-29 07:18:00,
2013-08-29 03:20:00,74.8,67.5,29.93,WSW,248,0.0,0.0,78,0.00,,---,0.00,VWS V14.01,2013-08-29 07:20:00,
2013-08-29 03:21:00,74.8,67.5,29.93,WSW,248,0.0,0.0,78,0.00,,---,0.00,VWS V14.01,2013-08-29 07:21:00,
2013-08-29 03:24:00,74.8,67.5,29.93,WSW,248,0.0,0.0,78,0.00,,---,0.00,VWS V14.01,2013-08-29 07:24:00,
2013-08-29 03:25:00,74.8,67.5,29.94,WSW,248,0.0,0.0,78,0.00,,---,0.00,VWS V14.01,2013-08-29 07:25:00,
2013-08-29 03:27:00,74.8,67.5,29.93,WSW,248,0.0,0.0,78,0.00,,---,0.00,VWS V14.01,2013-08-29 07:27:00,
2013-08-29 03:29:00,74.8,67.5,29.93,WSW,248,0.0,0.0,78,0.00,,---,0.00,VWS V14.01,2013-08-29 07:29:00,
2013-08-29 03:30:00,74.8,67.5,29.93,WSW,248,0.0,0.0,78,0.00,,---,0.00,VWS V14.01,2013-08-29 07:30:00,
2013-08-29 03:32:00,74.6,67.3,29.93,WSW,248,0.0,0.0,78,0.00,,---,0.00,VWS V14.01,2013-08-29 07:32:00,
2013-08-29 03:34:00,74.6,67.3,29.93,WSW,248,0.0,0.0,78,0.00,,---,0.00,VWS V14.01,2013-08-29 07:34:00,
2013-08-29 03:35:00,74.6,67.3,29.93,WSW,248,0.0,0.0,78,0.00,,---,0.00,VWS V14.01,2013-08-29 07:35:00,
2013-08-29 03:37:00,74.6,67.3,29.93,WSW,248,0.0,0.0,78,0.00,,---,0.00,VWS V14.01,2013-08-29 07:37:00,
2013-08-29 03:39:00,74.6,67.7,29.93,WSW,248,0.0,0.0,79,0.00,,---,0.00,VWS V14.01,2013-08-29 07:39:00,
2013-08-29 03:40:00,74.6,67.7,29.93,WSW,248,0.0,0.0,79,0.00,,---,0.00,VWS V14.01,2013-08-29 07:40:00,
2013-08-29 03:42:00,74.6,67.7,29.93,WSW,248,0.0,0.0,79,0.00,,---,0.00,VWS V14.01,2013-08-29 07:42:00,
2013-08-29 03:43:00,74.6,67.7,29.93,WSW,248,0.0,0.0,79,0.00,,---,0.00,VWS V14.01,2013-08-29 07:43:00,
2013-08-29 03:45:00,74.6,67.7,29.93,WSW,248,0.0,0.0,79,0.00,,---,0.00,VWS V14.01,2013-08-29 07:45:00,
2013-08-29 03:46:00,74.6,67.7,29.93,WSW,248,0.0,0.0,79,0.00,,---,0.00,VWS V14.01,2013-08-29 07:46:00,
2013-08-29 03:47:00,74.6,67.7,29.92,WSW,248,0.0,0.0,79,0.00,,---,0.00,VWS V14.01,2013-08-29 07:47:00,
2013-08-29 03:50:00,74.6,67.7,29.93,WSW,248,0.0,0.0,79,0.00,,---,0.00,VWS V14.01,2013-08-29 07:50:00,
2013-08-29 03:51:00,74.6,67.7,29.93,WSW,248,0.0,0.0,79,0.00,,---,0.00,VWS V14.01,2013-08-29 07:51:00,
2013-08-29 03:52:00,74.6,67.7,29.93,WSW,248,0.0,0.0,79,0.00,,---,0.00,VWS V14.01,2013-08-29 07:52:00,
2013-08-29 03:53:00,74.6,67.7,29.93,WSW,248,0.0,0.0,79,0.00,,---,0.00,VWS V14.01,2013-08-29 07:53:00,
2013-08-29 03:55:00,74.6,67.7,29.92,WSW,248,0.0,0.0,79,0.00,,---,0.00,VWS V14.01,2013-08-29 07:55:00,
2013-08-29 03:56:00,74.6,67.7,29.92,WSW,248,0.0,0.0,79,0.00,,---,0.00,VWS V14.01,2013-08-29 07:56:00,
2013-08-29 03:58:00,74.6,67.7,29.93,WSW,248,0.0,0.0,79,0.00,,---,0.00,VWS V14.01,2013-08-29 07:58:00,
2013-08-29 04:01:00,74.6,67.7,29.93,WSW,248,0.0,0.0,79,0.00,,---,0.00,VWS V14.01,2013-08-29 08:01:00,
2013-08-29 04:02:00,74.6,67.7,29.93,WSW,248,0.0,0.0,79,0.00,,---,0.00,VWS V14.01,2013-08-29 08:02:00,
2013-08-29 04:04:00,74.8,67.9,29.92,WSW,248,0.0,0.0,79,0.00,,---,0.00,VWS V14.01,2013-08-29 08:04:00,
2013-08-29 04:06:00,74.6,67.7,29.93,WSW,248,0.0,0.0,79,0.00,,---,0.00,VWS V14.01,2013-08-29 08:06:00,
2013-08-29 04:07:00,74.6,67.7,29.93,WSW,248,0.0,0.0,79,0.00,,---,0.00,VWS V14.01,2013-08-29 08:07:00,
2013-08-29 04:08:00,74.6,67.7,29.93,WSW,248,0.0,0.0,79,0.00,,---,0.00,VWS V14.01,2013-08-29 08:08:00,
2013-08-29 04:09:00,74.6,67.7,29.93,WSW,248,0.0,0.0,79,0.00,,---,0.00,VWS V14.01,2013-08-29 08:09:00,
2013-08-29 04:12:00,74.6,67.7,29.93,WSW,248,0.0,0.0,79,0.00,,---,0.00,VWS V14.01,2013-08-29 08:12:00,
2013-08-29 04:13:00,74.6,67.7,29.93,WSW,248,0.0,0.0,79,0.00,,---,0.00,VWS V14.01,2013-08-29 08:13:00,
2013-08-29 04:14:00,74.6,67.7,29.93,WSW,248,0.0,0.0,79,0.00,,---,0.00,VWS V14.01,2013-08-29 08:14:00,
2013-08-29 04:17:00,74.4,67.1,29.93,WSW,248,0.0,0.0,78,0.00,,---,0.00,VWS V14.01,2013-08-29 08:17:00,
2013-08-29 04:18:00,74.4,67.5,29.93,WSW,248,0.0,0.0,79,0.00,,---,0.00,VWS V14.01,2013-08-29 08:18:00,
2013-08-29 04:19:00,74.4,67.5,29.93,WSW,248,0.0,0.0,79,0.00,,---,0.00,VWS V14.01,2013-08-29 08:19:00,
2013-08-29 04:20:00,74.6,67.7,29.93,WSW,248,0.0,0.0,79,0.00,,---,0.00,VWS V14.01,2013-08-29 08:20:00,
2013-08-29 04:22:00,74.6,67.7,29.93,WSW,248,0.0,0.0,79,0.00,,---,0.00,VWS V14.01,2013-08-29 08:22:00,
2013-08-29 04:23:00,74.6,67.7,29.93,WSW,248,0.0,0.0,79,0.00,,---,0.00,VWS V14.01,2013-08-29 08:23:00,
2013-08-29 04:24:00,74.6,67.7,29.93,WSW,248,0.0,0.0,79,0.00,,---,0.00,VWS V14.01,2013-08-29 08:24:00,
2013-08-29 04:25:00,74.6,67.7,29.93,WSW,248,0.0,0.0,79,0.00,,---,0.00,VWS V14.01,2013-08-29 08:25:00,
2013-08-29 04:28:00,74.4,67.5,29.93,WSW,248,0.0,0.0,79,0.00,,---,0.00,VWS V14.01,2013-08-29 08:28:00,
2013-08-29 04:29:00,74.4,67.5,29.92,WSW,248,0.0,0.0,79,0.00,,---,0.00,VWS V14.01,2013-08-29 08:29:00,
2013-08-29 04:30:00,74.4,67.5,29.92,WSW,248,0.0,0.0,79,0.00,,---,0.00,VWS V14.01,2013-08-29 08:30:00,
2013-08-29 04:34:00,74.6,67.7,29.92,WSW,248,0.0,0.0,79,0.00,,---,0.00,VWS V14.01,2013-08-29 08:34:00,
2013-08-29 04:35:00,74.6,67.7,29.92,WSW,248,0.0,0.0,79,0.00,,---,0.00,VWS V14.01,2013-08-29 08:35:00,
2013-08-29 04:36:00,74.6,67.7,29.92,WSW,248,0.0,0.0,79,0.00,,---,0.00,VWS V14.01,2013-08-29 08:36:00,
2013-08-29 04:39:00,74.4,67.5,29.93,WSW,248,0.0,0.0,79,0.00,,---,0.00,VWS V14.01,2013-08-29 08:39:00,
2013-08-29 04:40:00,74.4,67.5,29.92,WSW,248,0.0,0.0,79,0.00,,---,0.00,VWS V14.01,2013-08-29 08:40:00,
2013-08-29 04:44:00,74.4,67.5,29.92,WSW,248,0.0,0.0,79,0.00,,---,0.00,VWS V14.01,2013-08-29 08:44:00,
2013-08-29 04:45:00,74.4,67.5,29.92,WSW,248,0.0,0.0,79,0.00,,---,0.00,VWS V14.01,2013-08-29 08:45:00,
2013-08-29 04:48:00,74.4,67.5,29.93,WSW,248,0.0,0.0,79,0.00,,---,0.00,VWS V14.01,2013-08-29 08:48:00,
2013-08-29 04:49:00,74.4,67.5,29.93,WSW,248,0.0,0.0,79,0.00,,---,0.00,VWS V14.01,2013-08-29 08:49:00,
2013-08-29 04:50:00,74.4,67.5,29.93,WSW,248,0.0,0.0,79,0.00,,---,0.00,VWS V14.01,2013-08-29 08:50:00,
2013-08-29 04:51:00,74.2,67.3,29.92,WSW,248,0.0,0.0,79,0.00,,---,0.00,VWS V14.01,2013-08-29 08:51:00,
2013-08-29 04:54:00,74.2,67.3,29.92,WSW,248,0.0,0.0,79,0.00,,---,0.00,VWS V14.01,2013-08-29 08:54:00,
2013-08-29 04:55:00,74.2,67.3,29.92,WSW,248,0.0,0.0,79,0.00,,---,0.00,VWS V14.01,2013-08-29 08:55:00,
2013-08-29 04:56:00,74.4,67.5,29.92,WSW,248,0.0,0.0,79,0.00,,---,0.00,VWS V14.01,2013-08-29 08:56:00,
2013-08-29 05:00:00,74.4,67.5,29.93,WSW,248,0.0,0.0,79,0.00,,---,0.00,VWS V14.01,2013-08-29 09:00:00,
2013-08-29 05:02:00,74.4,67.8,29.92,WSW,248,0.0,0.0,80,0.00,,---,0.00,VWS V14.01,2013-08-29 09:02:00,
2013-08-29 05:03:00,74.4,67.8,29.92,WSW,248,0.0,0.0,80,0.00,,---,0.00,VWS V14.01,2013-08-29 09:03:00,
2013-08-29 05:05:00,74.2,67.6,29.92,WSW,248,0.0,0.0,80,0.00,,---,0.00,VWS V14.01,2013-08-29 09:05:00,
2013-08-29 05:07:00,74.2,67.6,29.92,WSW,248,0.0,0.0,80,0.00,,---,0.00,VWS V14.01,2013-08-29 09:07:00,
2013-08-29 05:08:00,74.4,67.8,29.92,WSW,248,0.0,0.0,80,0.00,,---,0.00,VWS V14.01,2013-08-29 09:08:00,
2013-08-29 05:09:00,74.4,67.8,29.93,WSW,248,0.0,0.0,80,0.00,,---,0.00,VWS V14.01,2013-08-29 09:09:00,
2013-08-29 05:10:00,74.4,67.8,29.92,WSW,248,0.0,0.0,80,0.00,,---,0.00,VWS V14.01,2013-08-29 09:10:00,
2013-08-29 05:11:00,74.4,67.8,29.92,WSW,248,0.0,0.0,80,0.00,,---,0.00,VWS V14.01,2013-08-29 09:11:00,
2013-08-29 05:12:00,74.4,67.8,29.92,WSW,248,0.0,0.0,80,0.00,,---,0.00,VWS V14.01,2013-08-29 09:12:00,
2013-08-29 05:13:00,74.4,67.8,29.92,WSW,248,0.0,0.0,80,0.00,,---,0.00,VWS V14.01,2013-08-29 09:13:00,
2013-08-29 05:14:00,74.1,67.5,29.92,WSW,248,0.0,0.0,80,0.00,,---,0.00,VWS V14.01,2013-08-29 09:14:00,
2013-08-29 05:16:00,74.2,67.6,29.92,WSW,248,0.0,0.0,80,0.00,,---,0.00,VWS V14.01,2013-08-29 09:16:00,
2013-08-29 05:17:00,74.2,67.6,29.92,WSW,248,0.0,0.0,80,0.00,,---,0.00,VWS V14.01,2013-08-29 09:17:00,
2013-08-29 05:18:00,74.2,67.6,29.92,WSW,248,0.0,0.0,80,0.00,,---,0.00,VWS V14.01,2013-08-29 09:18:00,
2013-08-29 05:19:00,74.1,67.5,29.92,WSW,248,0.0,0.0,80,0.00,,---,0.00,VWS V14.01,2013-08-29 09:19:00,
2013-08-29 05:21:00,74.2,67.6,29.92,WSW,248,0.0,0.0,80,0.00,,---,0.00,VWS V14.01,2013-08-29 09:21:00,
2013-08-29 05:22:00,74.2,67.6,29.92,WSW,248,0.0,0.0,80,0.00,,---,0.00,VWS V14.01,2013-08-29 09:22:00,
2013-08-29 05:23:00,74.1,67.5,29.92,WSW,248,0.0,0.0,80,0.00,,---,0.00,VWS V14.01,2013-08-29 09:23:00,
2013-08-29 05:24:00,74.1,67.5,29.92,WSW,248,0.0,0.0,80,0.00,,---,0.00,VWS V14.01,2013-08-29 09:24:00,
2013-08-29 05:25:00,74.2,67.6,29.92,WSW,248,0.0,0.0,80,0.00,,---,0.00,VWS V14.01,2013-08-29 09:25:00,
2013-08-29 05:28:00,74.1,67.5,29.92,WSW,248,0.0,0.0,80,0.00,,---,0.00,VWS V14.01,2013-08-29 09:28:00,
2013-08-29 05:29:00,74.1,67.5,29.92,WSW,248,0.0,0.0,80,0.00,,---,0.00,VWS V14.01,2013-08-29 09:29:00,
2013-08-29 05:31:00,74.1,67.5,29.92,WSW,248,0.0,0.0,80,0.00,,---,0.00,VWS V14.01,2013-08-29 09:31:00,
2013-08-29 05:33:00,74.1,67.5,29.92,WSW,248,0.0,0.0,80,0.00,,---,0.00,VWS V14.01,2013-08-29 09:33:00,
2013-08-29 05:34:00,74.1,67.5,29.92,WSW,248,0.0,0.0,80,0.00,,---,0.00,VWS V14.01,2013-08-29 09:34:00,
2013-08-29 05:35:00,74.1,67.5,29.92,WSW,248,0.0,0.0,80,0.00,,---,0.00,VWS V14.01,2013-08-29 09:35:00,
2013-08-29 05:36:00,74.1,67.5,29.92,WSW,248,0.0,0.0,80,0.00,,---,0.00,VWS V14.01,2013-08-29 09:36:00,
2013-08-29 05:37:00,74.1,67.5,29.92,WSW,248,0.0,0.0,80,0.00,,---,0.00,VWS V14.01,2013-08-29 09:37:00,
2013-08-29 05:38:00,74.1,67.5,29.92,WSW,248,0.0,0.0,80,0.00,,---,0.00,VWS V14.01,2013-08-29 09:38:00,
2013-08-29 05:39:00,74.1,67.5,29.92,WSW,248,0.0,0.0,80,0.00,,---,0.00,VWS V14.01,2013-08-29 09:39:00,
2013-08-29 05:41:00,74.1,67.9,29.92,WSW,248,0.0,0.0,81,0.00,,---,0.00,VWS V14.01,2013-08-29 09:41:00,
2013-08-29 05:42:00,74.2,68.0,29.92,WSW,248,0.0,0.0,81,0.00,,---,0.00,VWS V14.01,2013-08-29 09:42:00,
2013-08-29 05:43:00,74.2,68.0,29.92,WSW,248,0.0,0.0,81,0.00,,---,0.00,VWS V14.01,2013-08-29 09:43:00,
2013-08-29 05:44:00,74.1,67.9,29.92,WSW,248,0.0,0.0,81,0.00,,---,0.00,VWS V14.01,2013-08-29 09:44:00,
2013-08-29 05:45:00,74.1,67.9,29.92,WSW,248,0.0,0.0,81,0.00,,---,0.00,VWS V14.01,2013-08-29 09:45:00,
2013-08-29 05:46:00,74.1,67.5,29.92,WSW,248,0.0,0.0,80,0.00,,---,0.00,VWS V14.01,2013-08-29 09:46:00,
2013-08-29 05:48:00,74.1,67.9,29.92,WSW,248,0.0,0.0,81,0.00,,---,0.00,VWS V14.01,2013-08-29 09:48:00,
2013-08-29 05:49:00,74.1,67.9,29.92,WSW,248,0.0,0.0,81,0.00,,---,0.00,VWS V14.01,2013-08-29 09:49:00,
2013-08-29 05:51:00,74.1,67.9,29.92,WSW,248,0.0,0.0,81,0.00,,---,0.00,VWS V14.01,2013-08-29 09:51:00,
2013-08-29 05:55:00,74.1,67.9,29.92,WSW,248,0.0,0.0,81,0.00,,---,0.00,VWS V14.01,2013-08-29 09:55:00,
2013-08-29 05:56:00,74.1,67.9,29.92,WSW,248,0.0,0.0,81,0.00,,---,0.00,VWS V14.01,2013-08-29 09:56:00,
2013-08-29 05:57:00,74.1,67.5,29.92,WSW,248,0.0,0.0,80,0.00,,---,0.00,VWS V14.01,2013-08-29 09:57:00,
2013-08-29 06:00:00,74.1,67.9,29.92,WSW,248,0.0,0.0,81,0.00,,---,0.00,VWS V14.01,2013-08-29 10:00:00,
2013-08-29 06:01:00,74.1,67.9,29.92,WSW,248,0.0,0.0,81,0.00,,---,0.00,VWS V14.01,2013-08-29 10:01:00,
2013-08-29 06:02:00,74.1,67.9,29.92,WSW,248,0.0,0.0,81,0.00,,---,0.00,VWS V14.01,2013-08-29 10:02:00,
2013-08-29 06:04:00,74.2,68.0,29.92,WSW,248,0.0,0.0,81,0.00,,---,0.00,VWS V14.01,2013-08-29 10:04:00,
2013-08-29 06:05:00,74.2,67.6,29.92,WSW,248,0.0,0.0,80,0.00,,---,0.00,VWS V14.01,2013-08-29 10:05:00,
2013-08-29 06:06:00,74.1,67.5,29.92,WSW,248,0.0,0.0,80,0.00,,---,0.00,VWS V14.01,2013-08-29 10:06:00,
2013-08-29 06:07:00,74.1,67.5,29.92,WSW,248,0.0,0.0,80,0.00,,---,0.00,VWS V14.01,2013-08-29 10:07:00,
2013-08-29 06:08:00,74.1,67.5,29.92,WSW,248,0.0,0.0,80,0.00,,---,0.00,VWS V14.01,2013-08-29 10:08:00,
2013-08-29 06:11:00,74.1,67.5,29.92,WSW,248,0.0,0.0,80,0.00,,---,0.00,VWS V14.01,2013-08-29 10:11:00,
2013-08-29 06:12:00,74.1,67.5,29.92,WSW,248,0.0,0.0,80,0.00,,---,0.00,VWS V14.01,2013-08-29 10:12:00,
2013-08-29 06:13:00,74.1,67.5,29.92,WSW,248,0.0,0.0,80,0.00,,---,0.00,VWS V14.01,2013-08-29 10:13:00,
2013-08-29 06:14:00,74.1,67.5,29.92,WSW,248,0.0,0.0,80,0.00,,---,0.00,VWS V14.01,2013-08-29 10:14:00,
2013-08-29 06:16:00,74.1,67.5,29.92,WSW,248,0.0,0.0,80,0.00,,---,0.00,VWS V14.01,2013-08-29 10:16:00,
2013-08-29 06:17:00,74.1,67.5,29.92,WSW,248,0.0,0.0,80,0.00,,---,0.00,VWS V14.01,2013-08-29 10:17:00,
2013-08-29 06:18:00,74.1,67.5,29.92,WSW,248,0.0,0.0,80,0.00,,---,0.00,VWS V14.01,2013-08-29 10:18:00,
2013-08-29 06:20:00,74.1,67.5,29.92,WSW,248,0.0,0.0,80,0.00,,---,0.00,VWS V14.01,2013-08-29 10:20:00,
2013-08-29 06:21:00,74.1,67.5,29.92,WSW,248,0.0,0.0,80,0.00,,---,0.00,VWS V14.01,2013-08-29 10:21:00,
2013-08-29 06:22:00,74.1,67.5,29.92,WSW,248,0.0,0.0,80,0.00,,---,0.00,VWS V14.01,2013-08-29 10:22:00,
2013-08-29 06:23:00,74.1,67.5,29.92,WSW,248,0.0,0.0,80,0.00,,---,0.00,VWS V14.01,2013-08-29 10:23:00,
2013-08-29 06:24:00,74.1,67.5,29.92,WSW,248,0.0,0.0,80,0.00,,---,0.00,VWS V14.01,2013-08-29 10:24:00,
2013-08-29 06:25:00,74.1,67.2,29.92,WSW,248,0.0,0.0,79,0.00,,---,0.00,VWS V14.01,2013-08-29 10:25:00,
2013-08-29 06:27:00,74.1,67.2,29.92,WSW,248,0.0,0.0,79,0.00,,---,0.00,VWS V14.01,2013-08-29 10:27:00,
2013-08-29 06:28:00,74.1,67.2,29.92,WSW,248,0.0,0.0,79,0.00,,---,0.00,VWS V14.01,2013-08-29 10:28:00,
2013-08-29 06:29:00,74.1,67.5,29.92,WSW,248,0.0,0.0,80,0.00,,---,0.00,VWS V14.01,2013-08-29 10:29:00,
2013-08-29 06:30:00,74.1,67.5,29.92,WSW,248,0.0,0.0,80,0.00,,---,0.00,VWS V14.01,2013-08-29 10:30:00,
2013-08-29 06:32:00,74.1,67.5,29.92,WSW,248,0.0,0.0,80,0.00,,---,0.00,VWS V14.01,2013-08-29 10:32:00,
2013-08-29 06:33:00,74.1,67.2,29.92,WSW,248,0.0,0.0,79,0.00,,---,0.00,VWS V14.01,2013-08-29 10:33:00,
2013-08-29 06:34:00,74.1,67.2,29.92,WSW,248,0.0,0.0,79,0.00,,---,0.00,VWS V14.01,2013-08-29 10:34:00,
2013-08-29 06:37:00,74.1,67.5,29.92,WSW,248,0.0,0.0,80,0.00,,---,0.00,VWS V14.01,2013-08-29 10:37:00,
2013-08-29 06:38:00,74.1,67.5,29.92,WSW,248,0.0,0.0,80,0.00,,---,0.00,VWS V14.01,2013-08-29 10:38:00,
2013-08-29 06:39:00,74.1,67.5,29.92,WSW,248,0.0,0.0,80,0.00,,---,0.00,VWS V14.01,2013-08-29 10:39:00,
2013-08-29 06:42:00,74.1,67.2,29.92,WSW,248,0.0,0.0,79,0.00,,---,0.00,VWS V14.01,2013-08-29 10:42:00,
2013-08-29 06:43:00,74.1,67.2,29.92,WSW,248,0.0,0.0,79,0.00,,---,0.00,VWS V14.01,2013-08-29 10:43:00,
2013-08-29 06:44:00,73.9,67.0,29.92,WSW,248,0.0,0.0,79,0.00,,---,0.00,VWS V14.01,2013-08-29 10:44:00,
2013-08-29 06:45:00,73.9,67.0,29.92,WSW,248,0.0,0.0,79,0.00,,---,0.00,VWS V14.01,2013-08-29 10:45:00,
2013-08-29 06:46:00,73.9,67.3,29.92,WSW,248,0.0,0.0,80,0.00,,---,0.00,VWS V14.01,2013-08-29 10:46:00,
2013-08-29 06:47:00,73.9,67.3,29.92,WSW,248,0.0,0.0,80,0.00,,---,0.00,VWS V14.01,2013-08-29 10:47:00,
2013-08-29 06:48:00,74.1,67.5,29.92,WSW,248,0.0,0.0,80,0.00,,---,0.00,VWS V14.01,2013-08-29 10:48:00,
2013-08-29 06:50:00,74.1,67.2,29.92,WSW,248,0.0,0.0,79,0.00,,---,0.00,VWS V14.01,2013-08-29 10:50:00,
2013-08-29 06:51:00,74.1,67.2,29.93,WSW,248,0.0,0.0,79,0.00,,---,0.00,VWS V14.01,2013-08-29 10:51:00,
2013-08-29 06:52:00,74.1,67.2,29.93,WSW,248,0.0,0.0,79,0.00,,---,0.00,VWS V14.01,2013-08-29 10:52:00,
2013-08-29 06:53:00,74.1,67.2,29.93,WSW,248,0.0,0.0,79,0.00,,---,0.00,VWS V14.01,2013-08-29 10:53:00,
2013-08-29 06:55:00,73.9,67.0,29.93,WSW,248,0.0,0.0,79,0.00,,---,0.00,VWS V14.01,2013-08-29 10:55:00,
2013-08-29 06:56:00,73.9,67.0,29.93,WSW,248,0.0,0.0,79,0.00,,---,0.00,VWS V14.01,2013-08-29 10:56:00,
2013-08-29 06:57:00,74.1,67.5,29.93,WSW,248,0.0,0.0,80,0.00,,---,0.00,VWS V14.01,2013-08-29 10:57:00,
2013-08-29 06:58:00,74.1,67.5,29.93,WSW,248,0.0,0.0,80,0.00,,---,0.00,VWS V14.01,2013-08-29 10:58:00,
2013-08-29 07:01:00,74.1,67.2,29.93,WSW,248,0.0,0.0,79,0.00,,---,0.00,VWS V14.01,2013-08-29 11:01:00,
2013-08-29 07:02:00,74.1,67.2,29.93,WSW,248,0.0,0.0,79,0.00,,---,0.00,VWS V14.01,2013-08-29 11:02:00,
2013-08-29 07:03:00,74.1,67.2,29.93,WSW,248,0.0,0.0,79,0.00,,---,0.00,VWS V14.01,2013-08-29 11:03:00,
2013-08-29 07:04:00,74.1,67.2,29.93,WSW,248,0.0,0.0,79,0.00,,---,0.00,VWS V14.01,2013-08-29 11:04:00,
2013-08-29 07:06:00,74.1,67.2,29.93,WSW,248,0.0,0.0,79,0.00,,---,0.00,VWS V14.01,2013-08-29 11:06:00,
2013-08-29 07:07:00,74.1,67.2,29.93,WSW,248,0.0,0.0,79,0.00,,---,0.00,VWS V14.01,2013-08-29 11:07:00,
2013-08-29 07:09:00,73.9,67.0,29.93,WSW,248,0.0,0.0,79,0.00,,---,0.00,VWS V14.01,2013-08-29 11:09:00,
2013-08-29 07:12:00,73.9,67.3,29.94,WSW,248,0.0,0.0,80,0.00,,---,0.00,VWS V14.01,2013-08-29 11:12:00,
2013-08-29 07:14:00,73.9,67.3,29.93,WSW,248,0.0,0.0,80,0.00,,---,0.00,VWS V14.01,2013-08-29 11:14:00,
2013-08-29 07:17:00,73.9,67.3,29.94,WSW,248,0.0,0.0,80,0.00,,---,0.00,VWS V14.01,2013-08-29 11:17:00,
2013-08-29 07:18:00,73.9,67.3,29.94,WSW,248,0.0,0.0,80,0.00,,---,0.00,VWS V14.01,2013-08-29 11:18:00,
2013-08-29 07:19:00,73.9,67.3,29.94,WSW,248,0.0,0.0,80,0.00,,---,0.00,VWS V14.01,2013-08-29 11:19:00,
2013-08-29 07:22:00,74.1,67.9,29.94,WSW,248,0.0,0.0,81,0.00,,---,0.00,VWS V14.01,2013-08-29 11:22:00,
2013-08-29 07:24:00,73.9,67.3,29.94,WSW,248,0.0,0.0,80,0.00,,---,0.00,VWS V14.01,2013-08-29 11:24:00,
2013-08-29 07:25:00,73.9,67.3,29.94,WSW,248,0.0,0.0,80,0.00,,---,0.00,VWS V14.01,2013-08-29 11:25:00,
2013-08-29 07:27:00,74.1,67.9,29.94,WSW,248,0.0,0.0,81,0.00,,---,0.00,VWS V14.01,2013-08-29 11:27:00,
2013-08-29 07:29:00,73.9,67.3,29.94,WSW,248,0.0,0.0,80,0.00,,---,0.00,VWS V14.01,2013-08-29 11:29:00,
2013-08-29 07:30:00,73.9,67.3,29.94,WSW,248,0.0,0.0,80,0.00,,---,0.00,VWS V14.01,2013-08-29 11:30:00,
2013-08-29 07:31:00,73.9,67.7,29.94,WSW,248,0.0,0.0,81,0.00,,---,0.00,VWS V14.01,2013-08-29 11:31:00,
2013-08-29 07:32:00,73.9,67.7,29.94,WSW,248,0.0,0.0,81,0.00,,---,0.00,VWS V14.01,2013-08-29 11:32:00,
2013-08-29 07:34:00,73.9,67.7,29.94,WSW,248,0.0,0.0,81,0.00,,---,0.00,VWS V14.01,2013-08-29 11:34:00,
2013-08-29 07:35:00,73.9,67.7,29.94,WSW,248,0.0,0.0,81,0.00,,---,0.00,VWS V14.01,2013-08-29 11:35:00,
2013-08-29 07:37:00,73.9,67.7,29.94,WSW,248,0.0,0.0,81,0.00,,---,0.00,VWS V14.01,2013-08-29 11:37:00,
2013-08-29 07:39:00,73.9,67.7,29.94,WSW,248,0.0,0.0,81,0.00,,---,0.00,VWS V14.01,2013-08-29 11:39:00,
2013-08-29 07:40:00,73.9,67.7,29.94,WSW,248,0.0,0.0,81,0.00,,---,0.00,VWS V14.01,2013-08-29 11:40:00,
2013-08-29 07:43:00,74.1,67.9,29.94,WSW,248,0.0,0.0,81,0.00,,---,0.00,VWS V14.01,2013-08-29 11:43:00,
2013-08-29 07:44:00,74.1,67.9,29.94,WSW,248,0.0,0.0,81,0.00,,---,0.00,VWS V14.01,2013-08-29 11:44:00,
2013-08-29 07:45:00,74.1,67.5,29.94,WSW,248,0.0,0.0,80,0.00,,---,0.00,VWS V14.01,2013-08-29 11:45:00,
2013-08-29 07:46:00,74.1,67.5,29.94,WSW,248,0.0,0.0,80,0.00,,---,0.00,VWS V14.01,2013-08-29 11:46:00,
2013-08-29 07:49:00,74.1,67.5,29.94,WSW,248,0.0,0.0,80,0.00,,---,0.00,VWS V14.01,2013-08-29 11:49:00,
2013-08-29 07:50:00,73.9,67.3,29.94,WSW,248,0.0,0.0,80,0.00,,---,0.00,VWS V14.01,2013-08-29 11:50:00,
2013-08-29 07:51:00,73.9,67.3,29.94,WSW,248,0.0,0.0,80,0.00,,---,0.00,VWS V14.01,2013-08-29 11:51:00,
2013-08-29 07:52:00,74.1,67.9,29.94,WSW,248,0.0,0.0,81,0.00,,---,0.00,VWS V14.01,2013-08-29 11:52:00,
2013-08-29 07:54:00,74.1,67.5,29.94,WSW,248,0.0,0.0,80,0.00,,---,0.00,VWS V14.01,2013-08-29 11:54:00,
2013-08-29 07:55:00,74.1,67.5,29.94,WSW,248,0.0,0.0,80,0.00,,---,0.00,VWS V14.01,2013-08-29 11:55:00,
2013-08-29 07:56:00,74.1,67.5,29.94,WSW,248,0.0,0.0,80,0.00,,---,0.00,VWS V14.01,2013-08-29 11:56:00,
2013-08-29 07:58:00,73.9,67.3,29.94,WSW,248,0.0,0.0,80,0.00,,---,0.00,VWS V14.01,2013-08-29 11:58:00,
2013-08-29 07:59:00,73.9,67.3,29.94,WSW,248,0.0,0.0,80,0.00,,---,0.00,VWS V14.01,2013-08-29 11:59:00,
2013-08-29 08:00:00,73.9,67.3,29.94,WSW,248,0.0,0.0,80,0.00,,---,0.00,VWS V14.01,2013-08-29 12:00:00,
2013-08-29 08:01:00,73.9,67.3,29.94,WSW,248,0.0,0.0,80,0.00,,---,0.00,VWS V14.01,2013-08-29 12:01:00,
2013-08-29 08:02:00,74.1,67.5,29.94,WSW,248,0.0,0.0,80,0.00,,---,0.00,VWS V14.01,2013-08-29 12:02:00,
2013-08-29 08:04:00,73.9,67.3,29.94,WSW,248,0.0,0.0,80,0.00,,---,0.00,VWS V14.01,2013-08-29 12:04:00,
2013-08-29 08:05:00,73.9,67.7,29.94,WSW,248,0.0,0.0,81,0.00,,---,0.00,VWS V14.01,2013-08-29 12:05:00,
2013-08-29 08:06:00,73.9,67.3,29.95,WSW,248,0.0,0.0,80,0.00,,---,0.00,VWS V14.01,2013-08-29 12:06:00,
2013-08-29 08:07:00,73.9,67.3,29.94,WSW,248,0.0,0.0,80,0.00,,---,0.00,VWS V14.01,2013-08-29 12:07:00,
2013-08-29 08:08:00,73.9,67.3,29.94,WSW,248,0.0,0.0,80,0.00,,---,0.00,VWS V14.01,2013-08-29 12:08:00,
2013-08-29 08:10:00,73.9,67.7,29.95,WSW,248,0.0,0.0,81,0.00,,---,0.00,VWS V14.01,2013-08-29 12:10:00,
2013-08-29 08:11:00,73.9,67.7,29.95,WSW,248,0.0,0.0,81,0.00,,---,0.00,VWS V14.01,2013-08-29 12:11:00,
2013-08-29 08:12:00,73.9,67.7,29.95,WSW,248,0.0,0.0,81,0.00,,---,0.00,VWS V14.01,2013-08-29 12:12:00,
2013-08-29 08:13:00,73.9,67.7,29.95,WSW,248,0.0,0.0,81,0.00,,---,0.00,VWS V14.01,2013-08-29 12:13:00,
2013-08-29 08:14:00,73.9,67.7,29.95,WSW,248,0.0,0.0,81,0.00,,---,0.00,VWS V14.01,2013-08-29 12:14:00,
2013-08-29 08:15:00,73.9,67.7,29.95,SW,225,0.0,0.0,81,0.00,,---,0.00,VWS V14.01,2013-08-29 12:15:00,
2013-08-29 08:16:00,73.9,67.7,29.95,SW,225,0.0,0.0,81,0.00,,---,0.00,VWS V14.01,2013-08-29 12:16:00,
2013-08-29 08:17:00,73.9,67.7,29.94,SW,225,0.0,0.0,81,0.00,,---,0.00,VWS V14.01,2013-08-29 12:17:00,
2013-08-29 08:18:00,73.9,67.7,29.94,SW,225,0.0,0.0,81,0.00,,---,0.00,VWS V14.01,2013-08-29 12:18:00,
2013-08-29 08:19:00,73.9,67.7,29.95,SW,225,0.0,0.0,81,0.00,,---,0.00,VWS V14.01,2013-08-29 12:19:00,
2013-08-29 08:21:00,73.9,67.7,29.95,SW,225,0.0,0.0,81,0.00,,---,0.00,VWS V14.01,2013-08-29 12:21:00,
2013-08-29 08:23:00,74.1,67.9,29.95,SW,225,0.0,0.0,81,0.00,,---,0.00,VWS V14.01,2013-08-29 12:23:00,
2013-08-29 08:24:00,73.9,67.3,29.95,SW,225,0.0,0.0,80,0.00,,---,0.00,VWS V14.01,2013-08-29 12:24:00,
2013-08-29 08:26:00,73.9,67.3,29.95,SW,225,0.0,0.0,80,0.00,,---,0.00,VWS V14.01,2013-08-29 12:26:00,
2013-08-29 08:29:00,73.9,67.7,29.95,SW,225,0.0,0.0,81,0.00,,---,0.00,VWS V14.01,2013-08-29 12:29:00,
2013-08-29 08:30:00,73.9,67.7,29.95,SW,225,0.0,0.0,81,0.00,,---,0.00,VWS V14.01,2013-08-29 12:30:00,
2013-08-29 08:31:00,73.9,67.7,29.95,SW,225,0.0,0.0,81,0.00,,---,0.00,VWS V14.01,2013-08-29 12:31:00,
2013-08-29 08:32:00,74.1,67.9,29.95,SW,225,0.0,0.0,81,0.00,,---,0.00,VWS V14.01,2013-08-29 12:32:00,
2013-08-29 08:34:00,74.1,67.9,29.95,SW,225,0.0,0.0,81,0.00,,---,0.00,VWS V14.01,2013-08-29 12:34:00,
2013-08-29 08:35:00,74.1,67.5,29.95,SW,225,0.0,0.0,80,0.00,,---,0.00,VWS V14.01,2013-08-29 12:35:00,
2013-08-29 08:36:00,74.1,67.5,29.95,SW,225,0.0,0.0,80,0.00,,---,0.00,VWS V14.01,2013-08-29 12:36:00,
2013-08-29 08:37:00,74.1,67.5,29.95,SW,225,0.0,0.0,80,0.00,,---,0.00,VWS V14.01,2013-08-29 12:37:00,
2013-08-29 08:38:00,74.1,67.5,29.95,SW,225,0.0,0.0,80,0.00,,---,0.00,VWS V14.01,2013-08-29 12:38:00,
2013-08-29 08:39:00,74.1,67.5,29.95,SW,225,0.0,0.0,80,0.00,,---,0.00,VWS V14.01,2013-08-29 12:39:00,
2013-08-29 08:41:00,74.1,67.5,29.95,SW,225,0.0,0.0,80,0.00,,---,0.00,VWS V14.01,2013-08-29 12:41:00,
2013-08-29 08:42:00,74.1,67.5,29.95,SW,225,0.0,0.0,80,0.00,,---,0.00,VWS V14.01,2013-08-29 12:42:00,
2013-08-29 08:43:00,74.1,67.5,29.95,SW,225,0.0,0.0,80,0.00,,---,0.00,VWS V14.01,2013-08-29 12:43:00,
2013-08-29 08:44:00,74.1,67.5,29.95,SW,225,0.0,0.0,80,0.00,,---,0.00,VWS V14.01,2013-08-29 12:44:00,
2013-08-29 08:46:00,74.1,67.5,29.95,SW,225,0.0,0.0,80,0.00,,---,0.00,VWS V14.01,2013-08-29 12:46:00,
2013-08-29 08:47:00,74.1,67.5,29.95,SSW,202,0.0,0.0,80,0.00,,---,0.00,VWS V14.01,2013-08-29 12:47:00,
2013-08-29 08:48:00,74.1,67.5,29.95,SSW,202,0.0,0.0,80,0.00,,---,0.00,VWS V14.01,2013-08-29 12:48:00,
2013-08-29 08:50:00,74.1,67.2,29.95,SSW,202,0.0,0.0,79,0.00,,---,0.00,VWS V14.01,2013-08-29 12:50:00,
2013-08-29 08:51:00,74.1,67.2,29.95,SSW,202,0.0,0.0,79,0.00,,---,0.00,VWS V14.01,2013-08-29 12:51:00,
2013-08-29 08:52:00,74.2,67.3,29.95,SSW,202,0.0,0.0,79,0.00,,---,0.00,VWS V14.01,2013-08-29 12:52:00,
2013-08-29 08:53:00,74.2,67.3,29.95,SSW,202,0.0,0.0,79,0.00,,---,0.00,VWS V14.01,2013-08-29 12:53:00,
2013-08-29 08:54:00,74.2,67.3,29.95,SSW,202,0.0,0.0,79,0.00,,---,0.00,VWS V14.01,2013-08-29 12:54:00,
2013-08-29 08:55:00,74.2,67.3,29.95,SSW,202,0.0,0.0,79,0.00,,---,0.00,VWS V14.01,2013-08-29 12:55:00,
2013-08-29 08:57:00,74.4,67.5,29.95,SSW,202,0.0,0.0,79,0.00,,---,0.00,VWS V14.01,2013-08-29 12:57:00,
2013-08-29 08:58:00,74.4,67.5,29.95,SSW,202,0.0,0.0,79,0.00,,---,0.00,VWS V14.01,2013-08-29 12:58:00,
2013-08-29 08:59:00,74.4,67.5,29.95,SSW,202,0.0,0.0,79,0.00,,---,0.00,VWS V14.01,2013-08-29 12:59:00,
2013-08-29 09:00:00,74.4,67.5,29.95,SSW,202,0.0,0.0,79,0.00,,---,0.00,VWS V14.01,2013-08-29 13:00:00,
2013-08-29 09:01:00,74.4,67.5,29.95,SSW,202,0.0,0.0,79,0.00,,---,0.00,VWS V14.01,2013-08-29 13:01:00,
2013-08-29 09:03:00,74.4,67.5,29.95,SSW,202,0.0,0.0,79,0.00,,---,0.00,VWS V14.01,2013-08-29 13:03:00,
2013-08-29 09:05:00,74.4,67.5,29.95,SSW,202,0.0,0.0,79,0.00,,---,0.00,VWS V14.01,2013-08-29 13:05:00,
2013-08-29 09:06:00,74.2,67.3,29.95,SSW,202,0.0,0.0,79,0.00,,---,0.00,VWS V14.01,2013-08-29 13:06:00,
2013-08-29 09:08:00,74.2,67.3,29.96,SSW,202,0.0,0.0,79,0.00,,---,0.00,VWS V14.01,2013-08-29 13:08:00,
2013-08-29 09:10:00,74.4,67.5,29.96,SSW,202,0.0,0.0,79,0.00,,---,0.00,VWS V14.01,2013-08-29 13:10:00,
2013-08-29 09:13:00,74.2,66.9,29.96,SSW,202,0.0,0.0,78,0.00,,---,0.00,VWS V14.01,2013-08-29 13:13:00,
2013-08-29 09:14:00,74.2,66.9,29.96,SSW,202,0.0,0.0,78,0.00,,---,0.00,VWS V14.01,2013-08-29 13:14:00,
2013-08-29 09:15:00,74.4,67.1,29.96,SSE,158,0.0,0.0,78,0.00,,---,0.00,VWS V14.01,2013-08-29 13:15:00,
2013-08-29 09:18:00,74.4,67.1,29.96,SSE,158,0.0,0.0,78,0.00,,---,0.00,VWS V14.01,2013-08-29 13:18:00,
2013-08-29 09:19:00,74.4,67.1,29.96,SSE,158,0.0,0.0,78,0.00,,---,0.00,VWS V14.01,2013-08-29 13:19:00,
2013-08-29 09:20:00,74.6,67.3,29.95,SSE,158,0.0,0.0,78,0.00,,---,0.00,VWS V14.01,2013-08-29 13:20:00,
2013-08-29 09:21:00,74.6,67.3,29.95,SSE,158,0.0,0.0,78,0.00,,---,0.00,VWS V14.01,2013-08-29 13:21:00,
2013-08-29 09:24:00,74.4,67.1,29.96,SSE,158,0.0,0.0,78,0.00,,---,0.00,VWS V14.01,2013-08-29 13:24:00,
2013-08-29 09:25:00,74.4,67.1,29.96,SSE,158,0.0,0.0,78,0.00,,---,0.00,VWS V14.01,2013-08-29 13:25:00,
2013-08-29 09:26:00,74.6,67.3,29.96,SSE,158,0.0,0.0,78,0.00,,---,0.00,VWS V14.01,2013-08-29 13:26:00,
2013-08-29 09:29:00,74.6,66.9,29.96,SSE,158,0.0,0.0,77,0.00,,---,0.00,VWS V14.01,2013-08-29 13:29:00,
2013-08-29 09:30:00,74.8,67.1,29.96,SSE,158,0.0,0.0,77,0.00,,---,0.00,VWS V14.01,2013-08-29 13:30:00,
2013-08-29 09:31:00,74.8,67.1,29.96,SSE,158,0.0,0.0,77,0.00,,---,0.00,VWS V14.01,2013-08-29 13:31:00,
2013-08-29 09:32:00,74.8,67.1,29.96,SSE,158,0.0,0.0,77,0.00,,---,0.00,VWS V14.01,2013-08-29 13:32:00,
2013-08-29 09:34:00,74.6,66.9,29.96,SSE,158,0.0,0.0,77,0.00,,---,0.00,VWS V14.01,2013-08-29 13:34:00,
2013-08-29 09:35:00,75.0,67.3,29.95,SSE,158,0.0,0.0,77,0.00,,---,0.00,VWS V14.01,2013-08-29 13:35:00,
2013-08-29 09:36:00,75.0,67.3,29.95,SSE,158,0.0,0.0,77,0.00,,---,0.00,VWS V14.01,2013-08-29 13:36:00,
2013-08-29 09:37:00,75.0,67.3,29.95,SSE,158,0.0,0.0,77,0.00,,---,0.00,VWS V14.01,2013-08-29 13:37:00,
2013-08-29 09:39:00,75.1,67.4,29.95,SSE,158,0.0,0.0,77,0.00,,---,0.00,VWS V14.01,2013-08-29 13:39:00,
2013-08-29 09:42:00,75.1,67.4,29.95,SSE,158,0.0,0.0,77,0.00,,---,0.00,VWS V14.01,2013-08-29 13:42:00,
2013-08-29 09:43:00,75.1,67.0,29.95,SSE,158,5.5,5.5,76,0.00,,---,0.00,VWS V14.01,2013-08-29 13:43:00,
2013-08-29 09:44:00,75.1,67.0,29.95,SSE,158,5.5,5.5,76,0.00,,---,0.00,VWS V14.01,2013-08-29 13:44:00,
2013-08-29 09:47:00,75.1,67.0,29.96,SSE,158,5.5,5.5,76,0.00,,---,0.00,VWS V14.01,2013-08-29 13:47:00,
2013-08-29 09:48:00,75.3,67.2,29.95,South,180,0.0,5.5,76,0.00,,---,0.00,VWS V14.01,2013-08-29 13:48:00,
2013-08-29 09:49:00,75.3,67.2,29.95,South,180,0.0,0.0,76,0.00,,---,0.00,VWS V14.01,2013-08-29 13:49:00,
2013-08-29 09:52:00,75.3,66.8,29.95,South,180,0.0,0.0,75,0.00,,---,0.00,VWS V14.01,2013-08-29 13:52:00,
2013-08-29 09:53:00,75.3,66.8,29.95,South,180,0.0,0.0,75,0.00,,---,0.00,VWS V14.01,2013-08-29 13:53:00,
2013-08-29 09:54:00,75.3,66.8,29.95,South,180,0.0,0.0,75,0.00,,---,0.00,VWS V14.01,2013-08-29 13:54:00,
2013-08-29 09:56:00,75.3,66.8,29.95,South,180,0.0,0.0,75,0.00,,---,0.00,VWS V14.01,2013-08-29 13:56:00,
2013-08-29 09:58:00,75.3,66.8,29.95,South,180,0.0,0.0,75,0.00,,---,0.00,VWS V14.01,2013-08-29 13:58:00,
2013-08-29 09:59:00,75.3,66.8,29.95,South,180,0.0,0.0,75,0.00,,---,0.00,VWS V14.01,2013-08-29 13:59:00,
2013-08-29 10:01:00,75.7,67.2,29.95,South,180,0.0,0.0,75,0.00,,---,0.00,VWS V14.01,2013-08-29 14:01:00,
2013-08-29 10:02:00,75.9,67.4,29.95,South,180,0.0,0.0,75,0.00,,---,0.00,VWS V14.01,2013-08-29 14:02:00,
2013-08-29 10:04:00,75.9,67.0,29.95,South,180,0.0,0.0,74,0.00,,---,0.00,VWS V14.01,2013-08-29 14:04:00,
2013-08-29 10:05:00,76.0,67.1,29.95,South,180,0.0,0.0,74,0.00,,---,0.00,VWS V14.01,2013-08-29 14:05:00,
2013-08-29 10:06:00,76.0,67.1,29.95,South,180,0.0,0.0,74,0.00,,---,0.00,VWS V14.01,2013-08-29 14:06:00,
2013-08-29 10:07:00,76.0,66.7,29.96,South,180,0.0,0.0,73,0.00,,---,0.00,VWS V14.01,2013-08-29 14:07:00,
2013-08-29 10:09:00,76.2,66.9,29.95,South,180,0.0,0.0,73,0.00,,---,0.00,VWS V14.01,2013-08-29 14:09:00,
2013-08-29 10:10:00,76.2,66.9,29.95,South,180,0.0,0.0,73,0.00,,---,0.00,VWS V14.01,2013-08-29 14:10:00,
2013-08-29 10:12:00,76.4,67.1,29.95,South,180,0.0,0.0,73,0.00,,---,0.00,VWS V14.01,2013-08-29 14:12:00,
2013-08-29 10:14:00,76.4,66.7,29.96,South,180,0.0,0.0,72,0.00,,---,0.00,VWS V14.01,2013-08-29 14:14:00,
2013-08-29 10:15:00,76.8,67.1,29.96,South,180,0.0,0.0,72,0.00,,---,0.00,VWS V14.01,2013-08-29 14:15:00,
2013-08-29 10:17:00,76.8,67.1,29.96,South,180,0.0,0.0,72,0.00,,---,0.00,VWS V14.01,2013-08-29 14:17:00,
2013-08-29 10:19:00,76.8,67.1,29.96,South,180,0.0,0.0,72,0.00,,---,0.00,VWS V14.01,2013-08-29 14:19:00,
2013-08-29 10:20:00,76.6,66.5,29.96,South,180,0.0,0.0,71,0.00,,---,0.00,VWS V14.01,2013-08-29 14:20:00,
2013-08-29 10:22:00,76.9,66.8,29.96,South,180,0.0,0.0,71,0.00,,---,0.00,VWS V14.01,2013-08-29 14:22:00,
2013-08-29 10:24:00,76.9,66.4,29.96,South,180,0.0,0.0,70,0.00,,---,0.00,VWS V14.01,2013-08-29 14:24:00,
2013-08-29 10:25:00,76.9,66.4,29.96,South,180,0.0,0.0,70,0.00,,---,0.00,VWS V14.01,2013-08-29 14:25:00,
2013-08-29 10:26:00,76.9,66.4,29.96,South,180,0.0,0.0,70,0.00,,---,0.00,VWS V14.01,2013-08-29 14:26:00,
2013-08-29 10:27:00,76.9,66.4,29.96,South,180,0.0,0.0,70,0.00,,---,0.00,VWS V14.01,2013-08-29 14:27:00,
2013-08-29 10:29:00,76.9,66.0,29.96,South,180,0.0,0.0,69,0.00,,---,0.00,VWS V14.01,2013-08-29 14:29:00,
2013-08-29 10:30:00,76.9,66.0,29.96,South,180,0.0,0.0,69,0.00,,---,0.00,VWS V14.01,2013-08-29 14:30:00,
2013-08-29 10:31:00,76.9,66.0,29.96,South,180,0.0,0.0,69,0.00,,---,0.00,VWS V14.01,2013-08-29 14:31:00,
2013-08-29 10:32:00,77.1,66.2,29.96,South,180,0.0,0.0,69,0.00,,---,0.00,VWS V14.01,2013-08-29 14:32:00,
2013-08-29 10:34:00,77.5,66.5,29.96,South,180,0.0,0.0,69,0.00,,---,0.00,VWS V14.01,2013-08-29 14:34:00,
2013-08-29 10:35:00,77.5,66.5,29.96,South,180,0.0,0.0,69,0.00,,---,0.00,VWS V14.01,2013-08-29 14:35:00,
2013-08-29 10:36:00,77.5,66.5,29.96,South,180,0.0,0.0,69,0.00,,---,0.00,VWS V14.01,2013-08-29 14:36:00,
2013-08-29 10:37:00,77.5,66.5,29.96,South,180,0.0,0.0,69,0.00,,---,0.00,VWS V14.01,2013-08-29 14:37:00,
2013-08-29 10:40:00,77.8,66.8,29.96,South,180,0.0,0.0,69,0.00,,---,0.00,VWS V14.01,2013-08-29 14:40:00,
2013-08-29 10:41:00,77.8,66.8,29.96,South,180,0.0,0.0,69,0.00,,---,0.00,VWS V14.01,2013-08-29 14:41:00,
2013-08-29 10:42:00,77.8,66.8,29.96,South,180,0.0,0.0,69,0.00,,---,0.00,VWS V14.01,2013-08-29 14:42:00,
2013-08-29 10:46:00,78.0,66.2,29.96,South,180,0.0,0.0,67,0.00,,---,0.00,VWS V14.01,2013-08-29 14:46:00,
2013-08-29 10:47:00,78.0,66.2,29.96,South,180,0.0,0.0,67,0.00,,---,0.00,VWS V14.01,2013-08-29 14:47:00,
2013-08-29 10:51:00,78.2,65.9,29.96,South,180,0.0,0.0,66,0.00,,---,0.00,VWS V14.01,2013-08-29 14:51:00,
2013-08-29 10:52:00,78.2,65.9,29.96,South,180,0.0,0.0,66,0.00,,---,0.00,VWS V14.01,2013-08-29 14:52:00,
2013-08-29 10:53:00,78.2,65.9,29.96,South,180,0.0,0.0,66,0.00,,---,0.00,VWS V14.01,2013-08-29 14:53:00,
2013-08-29 10:54:00,78.6,66.3,29.96,South,180,6.7,6.7,66,0.00,,---,0.00,VWS V14.01,2013-08-29 14:54:00,
2013-08-29 10:56:00,78.7,66.0,29.96,SSE,158,0.0,6.7,65,0.00,,---,0.00,VWS V14.01,2013-08-29 14:56:00,
2013-08-29 10:57:00,78.7,66.0,29.96,SSE,158,0.0,0.0,65,0.00,,---,0.00,VWS V14.01,2013-08-29 14:57:00,
2013-08-29 10:58:00,78.7,66.0,29.96,SSE,158,0.0,0.0,65,0.00,,---,0.00,VWS V14.01,2013-08-29 14:58:00,
2013-08-29 11:00:00,78.7,65.5,29.96,South,180,0.0,0.0,64,0.00,,---,0.00,VWS V14.01,2013-08-29 15:00:00,
2013-08-29 11:01:00,78.7,65.5,29.96,South,180,0.0,0.0,64,0.00,,---,0.00,VWS V14.01,2013-08-29 15:01:00,
2013-08-29 11:02:00,78.7,65.5,29.96,South,180,0.0,0.0,64,0.00,,---,0.00,VWS V14.01,2013-08-29 15:02:00,
2013-08-29 11:03:00,78.7,65.5,29.96,South,180,0.0,0.0,64,0.00,,---,0.00,VWS V14.01,2013-08-29 15:03:00,
2013-08-29 11:05:00,78.7,65.5,29.96,South,180,0.0,0.0,64,0.00,,---,0.00,VWS V14.01,2013-08-29 15:05:00,
2013-08-29 11:06:00,78.7,65.5,29.96,South,180,0.0,0.0,64,0.00,,---,0.00,VWS V14.01,2013-08-29 15:06:00,
2013-08-29 11:07:00,78.9,65.7,29.96,South,180,0.0,0.0,64,0.00,,---,0.00,VWS V14.01,2013-08-29 15:07:00,
2013-08-29 11:08:00,78.9,65.7,29.96,South,180,0.0,0.0,64,0.00,,---,0.00,VWS V14.01,2013-08-29 15:08:00,
2013-08-29 11:09:00,78.9,65.7,29.96,South,180,0.0,0.0,64,0.00,,---,0.00,VWS V14.01,2013-08-29 15:09:00,
2013-08-29 11:10:00,78.9,65.7,29.96,South,180,0.0,0.0,64,0.00,,---,0.00,VWS V14.01,2013-08-29 15:10:00,
2013-08-29 11:12:00,79.1,65.4,29.96,South,180,0.0,0.0,63,0.00,,---,0.00,VWS V14.01,2013-08-29 15:12:00,
2013-08-29 11:14:00,79.1,65.4,29.96,SSE,158,2.0,2.0,63,0.00,,---,0.00,VWS V14.01,2013-08-29 15:14:00,
2013-08-29 11:15:00,79.1,65.4,29.96,South,180,0.0,0.0,63,0.00,,---,0.00,VWS V14.01,2013-08-29 15:15:00,
2013-08-29 11:17:00,79.3,65.6,29.95,South,180,0.0,0.0,63,0.00,,---,0.00,VWS V14.01,2013-08-29 15:17:00,
2013-08-29 11:18:00,79.3,65.6,29.95,South,180,0.0,0.0,63,0.00,,---,0.00,VWS V14.01,2013-08-29 15:18:00,
2013-08-29 11:19:00,79.3,65.6,29.96,South,180,0.0,0.0,63,0.00,,---,0.00,VWS V14.01,2013-08-29 15:19:00,
2013-08-29 11:20:00,79.3,65.6,29.96,South,180,0.0,0.0,63,0.00,,---,0.00,VWS V14.01,2013-08-29 15:20:00,
2013-08-29 11:22:00,79.6,65.9,29.96,South,180,0.0,0.0,63,0.00,,---,0.00,VWS V14.01,2013-08-29 15:22:00,
2013-08-29 11:23:00,79.6,65.9,29.96,South,180,0.0,0.0,63,0.00,,---,0.00,VWS V14.01,2013-08-29 15:23:00,
2013-08-29 11:24:00,79.8,66.1,29.96,South,180,0.0,0.0,63,0.00,,---,0.00,VWS V14.01,2013-08-29 15:24:00,
2013-08-29 11:25:00,80.0,65.8,29.96,South,180,0.0,0.0,62,0.00,,---,0.00,VWS V14.01,2013-08-29 15:25:00,
2013-08-29 11:26:00,80.0,65.8,29.96,South,180,0.0,0.0,62,0.00,,---,0.00,VWS V14.01,2013-08-29 15:26:00,
2013-08-29 11:28:00,79.8,65.6,29.96,South,180,0.0,0.0,62,0.00,,---,0.00,VWS V14.01,2013-08-29 15:28:00,
2013-08-29 11:29:00,79.8,65.6,29.96,South,180,0.0,0.0,62,0.00,,---,0.00,VWS V14.01,2013-08-29 15:29:00,
2013-08-29 11:31:00,80.0,65.8,29.96,South,180,0.0,0.0,62,0.00,,---,0.00,VWS V14.01,2013-08-29 15:31:00,
2013-08-29 11:32:00,80.0,65.8,29.96,South,180,0.0,0.0,62,0.00,,---,0.00,VWS V14.01,2013-08-29 15:32:00,
2013-08-29 11:33:00,80.0,65.8,29.96,South,180,0.0,0.0,62,0.00,,---,0.00,VWS V14.01,2013-08-29 15:33:00,
2013-08-29 11:35:00,80.2,65.5,29.96,West,270,0.0,0.0,61,0.00,,---,0.00,VWS V14.01,2013-08-29 15:35:00,
2013-08-29 11:36:00,80.2,65.1,29.96,West,270,0.0,0.0,60,0.00,,---,0.00,VWS V14.01,2013-08-29 15:36:00,
2013-08-29 11:37:00,80.2,65.1,29.96,West,270,0.0,0.0,60,0.00,,---,0.00,VWS V14.01,2013-08-29 15:37:00,
2013-08-29 11:38:00,80.2,65.5,29.96,South,180,0.0,0.0,61,0.00,,---,0.00,VWS V14.01,2013-08-29 15:38:00,
2013-08-29 11:40:00,80.5,65.3,29.96,South,180,0.0,0.0,60,0.00,,---,0.00,VWS V14.01,2013-08-29 15:40:00,
2013-08-29 11:42:00,80.5,65.3,29.96,South,180,0.0,0.0,60,0.00,,---,0.00,VWS V14.01,2013-08-29 15:42:00,
2013-08-29 11:43:00,80.5,65.3,29.96,WNW,292,0.0,0.0,60,0.00,,---,0.00,VWS V14.01,2013-08-29 15:43:00,
2013-08-29 11:44:00,80.5,65.3,29.96,WNW,292,0.0,0.0,60,0.00,,---,0.00,VWS V14.01,2013-08-29 15:44:00,
2013-08-29 11:46:00,80.4,64.8,29.96,SSE,158,2.9,2.9,59,0.00,,---,0.00,VWS V14.01,2013-08-29 15:46:00,
2013-08-29 11:47:00,80.5,65.3,29.96,South,180,0.0,0.0,60,0.00,,---,0.00,VWS V14.01,2013-08-29 15:47:00,
2013-08-29 11:48:00,80.5,65.3,29.96,South,180,0.0,0.0,60,0.00,,---,0.00,VWS V14.01,2013-08-29 15:48:00,
2013-08-29 11:49:00,80.5,65.3,29.96,South,180,0.0,0.0,60,0.00,,---,0.00,VWS V14.01,2013-08-29 15:49:00,
2013-08-29 11:51:00,81.1,65.9,29.96,South,180,0.0,0.0,60,0.00,,---,0.00,VWS V14.01,2013-08-29 15:51:00,
2013-08-29 11:52:00,81.1,65.9,29.95,South,180,0.0,0.0,60,0.00,,---,0.00,VWS V14.01,2013-08-29 15:52:00,
2013-08-29 11:54:00,81.6,66.4,29.95,South,180,0.0,0.0,60,0.00,,---,0.00,VWS V14.01,2013-08-29 15:54:00,
2013-08-29 11:55:00,81.6,66.4,29.95,South,180,0.0,0.0,60,0.00,,---,0.00,VWS V14.01,2013-08-29 15:55:00,
2013-08-29 11:56:00,81.4,65.7,29.96,South,180,0.0,0.0,59,0.00,,---,0.00,VWS V14.01,2013-08-29 15:56:00,
2013-08-29 11:57:00,81.6,65.9,29.95,South,180,0.0,0.0,59,0.00,,---,0.00,VWS V14.01,2013-08-29 15:57:00,
2013-08-29 11:59:00,81.6,65.9,29.95,South,180,0.0,0.0,59,0.00,,---,0.00,VWS V14.01,2013-08-29 15:59:00,
2013-08-29 12:01:00,82.0,65.8,29.95,SSE,158,2.6,2.6,58,0.00,,---,0.00,VWS V14.01,2013-08-29 16:01:00,
2013-08-29 12:02:00,82.3,66.1,29.95,SSE,158,2.6,2.6,58,0.00,,---,0.00,VWS V14.01,2013-08-29 16:02:00,
2013-08-29 12:03:00,82.3,66.1,29.95,SSE,158,2.6,2.6,58,0.00,,---,0.00,VWS V14.01,2013-08-29 16:03:00,
2013-08-29 12:04:00,82.3,65.6,29.95,SSE,158,0.0,0.0,57,0.00,,---,0.00,VWS V14.01,2013-08-29 16:04:00,
2013-08-29 12:05:00,82.3,65.6,29.95,SSE,158,0.0,0.0,57,0.00,,---,0.00,VWS V14.01,2013-08-29 16:05:00,
2013-08-29 12:06:00,82.5,65.8,29.95,South,180,0.0,0.0,57,0.00,,---,0.00,VWS V14.01,2013-08-29 16:06:00,
2013-08-29 12:07:00,82.5,65.8,29.95,WSW,248,2.9,2.9,57,0.00,,---,0.00,VWS V14.01,2013-08-29 16:07:00,
2013-08-29 12:08:00,82.5,65.8,29.95,WSW,248,2.9,2.9,57,0.00,,---,0.00,VWS V14.01,2013-08-29 16:08:00,
2013-08-29 12:10:00,82.9,66.1,29.95,WSW,248,2.9,2.9,57,0.00,,---,0.00,VWS V14.01,2013-08-29 16:10:00,
2013-08-29 12:11:00,83.1,65.8,29.95,WSW,248,2.9,2.9,56,0.00,,---,0.00,VWS V14.01,2013-08-29 16:11:00,
2013-08-29 12:12:00,83.1,65.8,29.95,WSW,248,2.9,2.9,56,0.00,,---,0.00,VWS V14.01,2013-08-29 16:12:00,
2013-08-29 12:13:00,83.4,65.6,29.95,South,180,6.4,6.4,55,0.00,,---,0.00,VWS V14.01,2013-08-29 16:13:00,
2013-08-29 12:14:00,83.4,65.6,29.95,South,180,6.4,6.4,55,0.00,,---,0.00,VWS V14.01,2013-08-29 16:14:00,
2013-08-29 12:15:00,83.6,65.7,29.95,South,180,0.0,0.0,55,0.00,,---,0.00,VWS V14.01,2013-08-29 16:15:00,
2013-08-29 12:17:00,84.0,65.6,29.95,South,180,0.0,0.0,54,0.00,,---,0.00,VWS V14.01,2013-08-29 16:17:00,
2013-08-29 12:18:00,84.1,65.1,29.95,South,180,0.0,0.0,53,0.00,,---,0.00,VWS V14.01,2013-08-29 16:18:00,
2013-08-29 12:19:00,84.1,65.1,29.95,South,180,0.0,0.0,53,0.00,,---,0.00,VWS V14.01,2013-08-29 16:19:00,
2013-08-29 12:20:00,84.1,65.1,29.95,South,180,0.0,0.0,53,0.00,,---,0.00,VWS V14.01,2013-08-29 16:20:00,
2013-08-29 12:21:00,84.1,64.6,29.95,SSE,158,4.9,4.9,52,0.00,,---,0.00,VWS V14.01,2013-08-29 16:21:00,
2013-08-29 12:22:00,84.1,64.6,29.95,SSE,158,4.9,4.9,52,0.00,,---,0.00,VWS V14.01,2013-08-29 16:22:00,
2013-08-29 12:24:00,84.1,64.6,29.95,SSE,158,4.9,4.9,52,0.00,,---,0.00,VWS V14.01,2013-08-29 16:24:00,
2013-08-29 12:26:00,84.3,64.8,29.95,SSE,158,0.0,0.0,52,0.00,,---,0.00,VWS V14.01,2013-08-29 16:26:00,
2013-08-29 12:27:00,84.3,64.8,29.95,SSE,158,0.0,0.0,52,0.00,,---,0.00,VWS V14.01,2013-08-29 16:27:00,
2013-08-29 12:29:00,84.1,65.1,29.95,SSE,158,0.0,0.0,53,0.00,,---,0.00,VWS V14.01,2013-08-29 16:29:00,
2013-08-29 12:31:00,84.3,64.8,29.94,South,180,0.0,0.0,52,0.00,,---,0.00,VWS V14.01,2013-08-29 16:31:00,
2013-08-29 12:32:00,84.7,64.6,29.95,South,180,0.0,0.0,51,0.00,,---,0.00,VWS V14.01,2013-08-29 16:32:00,
2013-08-29 12:33:00,84.7,64.6,29.95,South,180,0.0,0.0,51,0.00,,---,0.00,VWS V14.01,2013-08-29 16:33:00,
2013-08-29 12:34:00,84.7,63.5,29.94,South,180,0.0,0.0,49,0.00,,---,0.00,VWS V14.01,2013-08-29 16:34:00,
2013-08-29 12:36:00,84.7,63.5,29.94,SW,225,0.0,0.0,49,0.00,,---,0.00,VWS V14.01,2013-08-29 16:36:00,
2013-08-29 12:37:00,84.7,62.9,29.94,SW,225,0.0,0.0,48,0.00,,---,0.00,VWS V14.01,2013-08-29 16:37:00,
2013-08-29 12:38:00,84.7,62.9,29.94,SW,225,0.0,0.0,48,0.00,,---,0.00,VWS V14.01,2013-08-29 16:38:00,
2013-08-29 12:39:00,84.9,63.0,29.95,SW,225,0.0,0.0,48,0.00,,---,0.00,VWS V14.01,2013-08-29 16:39:00,
2013-08-29 12:41:00,84.9,62.4,29.94,SW,225,0.0,0.0,47,0.00,,---,0.00,VWS V14.01,2013-08-29 16:41:00,
2013-08-29 12:42:00,84.9,62.4,29.94,South,180,0.0,0.0,47,0.00,,---,0.00,VWS V14.01,2013-08-29 16:42:00,
2013-08-29 12:43:00,84.9,63.0,29.94,South,180,0.0,0.0,48,0.00,,---,0.00,VWS V14.01,2013-08-29 16:43:00,
2013-08-29 12:44:00,85.0,62.5,29.94,South,180,0.0,0.0,47,0.00,,---,0.00,VWS V14.01,2013-08-29 16:44:00,
2013-08-29 12:45:00,85.0,62.5,29.94,South,180,0.0,0.0,47,0.00,,---,0.00,VWS V14.01,2013-08-29 16:45:00,
2013-08-29 12:47:00,85.0,62.5,29.94,South,180,0.0,0.0,47,0.00,,---,0.00,VWS V14.01,2013-08-29 16:47:00,
2013-08-29 12:48:00,85.0,62.5,29.94,South,180,0.0,0.0,47,0.00,,---,0.00,VWS V14.01,2013-08-29 16:48:00,
2013-08-29 12:50:00,85.4,63.5,29.94,South,180,0.0,0.0,48,0.00,,---,0.00,VWS V14.01,2013-08-29 16:50:00,
2013-08-29 12:51:00,85.6,63.1,29.94,South,180,4.0,4.0,47,0.00,,---,0.00,VWS V14.01,2013-08-29 16:51:00,
2013-08-29 12:52:00,85.6,63.1,29.94,South,180,0.0,0.0,47,0.00,,---,0.00,VWS V14.01,2013-08-29 16:52:00,
2013-08-29 12:53:00,85.6,63.1,29.94,South,180,0.0,0.0,47,0.00,,---,0.00,VWS V14.01,2013-08-29 16:53:00,
2013-08-29 12:55:00,85.6,63.1,29.94,South,180,0.0,0.0,47,0.00,,---,0.00,VWS V14.01,2013-08-29 16:55:00,
2013-08-29 12:56:00,85.6,63.1,29.94,South,180,0.0,0.0,47,0.00,,---,0.00,VWS V14.01,2013-08-29 16:56:00,
2013-08-29 12:57:00,85.6,62.5,29.94,SSW,202,0.0,0.0,46,0.00,,---,0.00,VWS V14.01,2013-08-29 16:57:00,
2013-08-29 12:58:00,85.6,62.5,29.94,SSW,202,0.0,0.0,46,0.00,,---,0.00,VWS V14.01,2013-08-29 16:58:00,
2013-08-29 12:59:00,85.6,62.5,29.94,SSW,202,0.0,0.0,46,0.00,,---,0.00,VWS V14.01,2013-08-29 16:59:00,
2013-08-29 13:00:00,85.4,62.3,29.94,SSW,202,0.0,0.0,46,0.00,,---,0.00,VWS V14.01,2013-08-29 17:00:00,
2013-08-29 13:01:00,85.4,62.9,29.94,SSW,202,0.0,0.0,47,0.00,,---,0.00,VWS V14.01,2013-08-29 17:01:00,
2013-08-29 13:02:00,85.4,62.9,29.94,SSW,202,0.0,0.0,47,0.00,,---,0.00,VWS V14.01,2013-08-29 17:02:00,
2013-08-29 13:03:00,85.4,62.9,29.94,SSW,202,0.0,0.0,47,0.00,,---,0.00,VWS V14.01,2013-08-29 17:03:00,
2013-08-29 13:04:00,85.4,62.9,29.94,SSW,202,0.0,0.0,47,0.00,,---,0.00,VWS V14.01,2013-08-29 17:04:00,
2013-08-29 13:06:00,85.4,62.9,29.94,SSW,202,0.0,0.0,47,0.00,,---,0.00,VWS V14.01,2013-08-29 17:06:00,
2013-08-29 13:08:00,85.4,62.9,29.94,SSW,202,0.0,0.0,47,0.00,,---,0.00,VWS V14.01,2013-08-29 17:08:00,
2013-08-29 13:09:00,85.4,62.9,29.94,SSW,202,0.0,0.0,47,0.00,,---,0.00,VWS V14.01,2013-08-29 17:09:00,
2013-08-29 13:10:00,85.2,62.1,29.93,SSW,202,0.0,0.0,46,0.00,,---,0.00,VWS V14.01,2013-08-29 17:10:00,
2013-08-29 13:11:00,85.2,62.1,29.93,SSW,202,0.0,0.0,46,0.00,,---,0.00,VWS V14.01,2013-08-29 17:11:00,
2013-08-29 13:14:00,85.2,62.1,29.93,South,180,0.0,0.0,46,0.00,,---,0.00,VWS V14.01,2013-08-29 17:14:00,
2013-08-29 13:15:00,85.2,62.7,29.93,South,180,0.0,0.0,47,0.00,,---,0.00,VWS V14.01,2013-08-29 17:15:00,
2013-08-29 13:16:00,85.2,62.7,29.93,South,180,0.0,0.0,47,0.00,,---,0.00,VWS V14.01,2013-08-29 17:16:00,
2013-08-29 13:18:00,85.2,62.7,29.93,South,180,0.0,0.0,47,0.00,,---,0.00,VWS V14.01,2013-08-29 17:18:00,
2013-08-29 13:19:00,85.2,62.7,29.93,South,180,0.0,0.0,47,0.00,,---,0.00,VWS V14.01,2013-08-29 17:19:00,
2013-08-29 13:20:00,85.2,62.7,29.93,South,180,0.0,0.0,47,0.00,,---,0.00,VWS V14.01,2013-08-29 17:20:00,
2013-08-29 13:22:00,85.2,62.7,29.93,South,180,0.0,0.0,47,0.00,,---,0.00,VWS V14.01,2013-08-29 17:22:00,
2013-08-29 13:24:00,85.4,62.9,29.93,South,180,0.0,0.0,47,0.00,,---,0.00,VWS V14.01,2013-08-29 17:24:00,
2013-08-29 13:25:00,85.4,62.9,29.93,South,180,0.0,0.0,47,0.00,,---,0.00,VWS V14.01,2013-08-29 17:25:00,
2013-08-29 13:27:00,85.4,62.9,29.93,South,180,0.0,0.0,47,0.00,,---,0.00,VWS V14.01,2013-08-29 17:27:00,
2013-08-29 13:29:00,85.4,63.5,29.93,South,180,0.0,0.0,48,0.00,,---,0.00,VWS V14.01,2013-08-29 17:29:00,
2013-08-29 13:30:00,85.4,63.5,29.93,South,180,0.0,0.0,48,0.00,,---,0.00,VWS V14.01,2013-08-29 17:30:00,
2013-08-29 13:31:00,85.4,63.5,29.94,South,180,0.0,0.0,48,0.00,,---,0.00,VWS V14.01,2013-08-29 17:31:00,
2013-08-29 13:32:00,85.4,63.5,29.94,South,180,0.0,0.0,48,0.00,,---,0.00,VWS V14.01,2013-08-29 17:32:00,
2013-08-29 13:35:00,85.6,63.1,29.94,South,180,0.0,0.0,47,0.00,,---,0.00,VWS V14.01,2013-08-29 17:35:00,
2013-08-29 13:36:00,85.6,63.1,29.94,South,180,4.4,4.4,47,0.00,,---,0.00,VWS V14.01,2013-08-29 17:36:00,
2013-08-29 13:37:00,85.4,62.9,29.93,South,180,4.4,4.4,47,0.00,,---,0.00,VWS V14.01,2013-08-29 17:37:00,
2013-08-29 13:38:00,85.4,62.9,29.94,South,180,0.0,4.4,47,0.00,,---,0.00,VWS V14.01,2013-08-29 17:38:00,
2013-08-29 13:40:00,85.4,62.3,29.94,South,180,0.0,0.0,46,0.00,,---,0.00,VWS V14.01,2013-08-29 17:40:00,
2013-08-29 13:41:00,85.4,62.3,29.94,South,180,0.0,0.0,46,0.00,,---,0.00,VWS V14.01,2013-08-29 17:41:00,
2013-08-29 13:42:00,85.4,62.3,29.93,South,180,0.0,0.0,46,0.00,,---,0.00,VWS V14.01,2013-08-29 17:42:00,
2013-08-29 13:43:00,85.4,62.3,29.93,South,180,0.0,0.0,46,0.00,,---,0.00,VWS V14.01,2013-08-29 17:43:00,
2013-08-29 13:45:00,85.2,62.1,29.93,South,180,0.0,0.0,46,0.00,,---,0.00,VWS V14.01,2013-08-29 17:45:00,
2013-08-29 13:47:00,85.4,62.3,29.93,South,180,0.0,0.0,46,0.00,,---,0.00,VWS V14.01,2013-08-29 17:47:00,
2013-08-29 13:48:00,85.2,62.7,29.94,South,180,0.0,0.0,47,0.00,,---,0.00,VWS V14.01,2013-08-29 17:48:00,
2013-08-29 13:49:00,85.2,62.7,29.94,South,180,0.0,0.0,47,0.00,,---,0.00,VWS V14.01,2013-08-29 17:49:00,
2013-08-29 13:51:00,85.4,62.9,29.93,South,180,0.0,0.0,47,0.00,,---,0.00,VWS V14.01,2013-08-29 17:51:00,
2013-08-29 13:52:00,85.4,62.9,29.93,South,180,0.0,0.0,47,0.00,,---,0.00,VWS V14.01,2013-08-29 17:52:00,
2013-08-29 13:53:00,85.4,62.9,29.93,South,180,0.0,0.0,47,0.00,,---,0.00,VWS V14.01,2013-08-29 17:53:00,
2013-08-29 13:54:00,85.4,62.9,29.93,South,180,0.0,0.0,47,0.00,,---,0.00,VWS V14.01,2013-08-29 17:54:00,
2013-08-29 13:56:00,85.4,62.3,29.93,South,180,0.0,0.0,46,0.00,,---,0.00,VWS V14.01,2013-08-29 17:56:00,
2013-08-29 13:57:00,85.4,62.3,29.93,South,180,0.0,0.0,46,0.00,,---,0.00,VWS V14.01,2013-08-29 17:57:00,
2013-08-29 13:58:00,85.4,63.5,29.93,South,180,0.0,0.0,48,0.00,,---,0.00,VWS V14.01,2013-08-29 17:58:00,
2013-08-29 13:59:00,85.4,63.5,29.93,South,180,0.0,0.0,48,0.00,,---,0.00,VWS V14.01,2013-08-29 17:59:00,
2013-08-29 14:00:00,85.2,63.3,29.93,South,180,0.0,0.0,48,0.00,,---,0.00,VWS V14.01,2013-08-29 18:00:00,
2013-08-29 14:01:00,85.2,63.3,29.93,South,180,0.0,0.0,48,0.00,,---,0.00,VWS V14.01,2013-08-29 18:01:00,
2013-08-29 14:02:00,85.2,63.3,29.92,South,180,0.0,0.0,48,0.00,,---,0.00,VWS V14.01,2013-08-29 18:02:00,
2013-08-29 14:03:00,85.2,63.3,29.92,South,180,0.0,0.0,48,0.00,,---,0.00,VWS V14.01,2013-08-29 18:03:00,
2013-08-29 14:04:00,85.2,63.9,29.92,South,180,0.0,0.0,49,0.00,,---,0.00,VWS V14.01,2013-08-29 18:04:00,
2013-08-29 14:05:00,85.4,63.5,29.92,South,180,0.0,0.0,48,0.00,,---,0.00,VWS V14.01,2013-08-29 18:05:00,
2013-08-29 14:06:00,85.4,63.5,29.92,South,180,0.0,0.0,48,0.00,,---,0.00,VWS V14.01,2013-08-29 18:06:00,
2013-08-29 14:08:00,85.9,64.5,29.92,South,180,0.0,0.0,49,0.00,,---,0.00,VWS V14.01,2013-08-29 18:08:00,
2013-08-29 14:09:00,86.1,65.3,29.92,South,180,0.0,0.0,50,0.00,,---,0.00,VWS V14.01,2013-08-29 18:09:00,
2013-08-29 14:11:00,86.1,65.3,29.92,South,180,0.0,0.0,50,0.00,,---,0.00,VWS V14.01,2013-08-29 18:11:00,
2013-08-29 14:12:00,86.1,65.3,29.92,South,180,0.0,0.0,50,0.00,,---,0.00,VWS V14.01,2013-08-29 18:12:00,
2013-08-29 14:13:00,85.9,64.5,29.92,South,180,0.0,0.0,49,0.00,,---,0.00,VWS V14.01,2013-08-29 18:13:00,
2013-08-29 14:14:00,86.1,64.1,29.92,South,180,0.0,0.0,48,0.00,,---,0.00,VWS V14.01,2013-08-29 18:14:00,
2013-08-29 14:16:00,85.9,64.0,29.91,South,180,0.0,0.0,48,0.00,,---,0.00,VWS V14.01,2013-08-29 18:16:00,
2013-08-29 14:17:00,85.9,64.0,29.91,South,180,0.0,0.0,48,0.00,,---,0.00,VWS V14.01,2013-08-29 18:17:00,
2013-08-29 14:18:00,85.9,64.0,29.92,South,180,0.0,0.0,48,0.00,,---,0.00,VWS V14.01,2013-08-29 18:18:00,
2013-08-29 14:19:00,85.9,64.0,29.92,South,180,0.0,0.0,48,0.00,,---,0.00,VWS V14.01,2013-08-29 18:19:00,
2013-08-29 14:20:00,85.9,64.0,29.92,South,180,0.0,0.0,48,0.00,,---,0.00,VWS V14.01,2013-08-29 18:20:00,
2013-08-29 14:21:00,85.9,64.5,29.92,South,180,0.0,0.0,49,0.00,,---,0.00,VWS V14.01,2013-08-29 18:21:00,
2013-08-29 14:22:00,85.9,64.5,29.91,South,180,0.0,0.0,49,0.00,,---,0.00,VWS V14.01,2013-08-29 18:22:00,
2013-08-29 14:24:00,85.9,64.5,29.91,South,180,0.0,0.0,49,0.00,,---,0.00,VWS V14.01,2013-08-29 18:24:00,
2013-08-29 14:25:00,85.9,64.5,29.92,South,180,5.3,5.3,49,0.00,,---,0.00,VWS V14.01,2013-08-29 18:25:00,
2013-08-29 14:26:00,85.9,64.5,29.92,South,180,0.0,0.0,49,0.00,,---,0.00,VWS V14.01,2013-08-29 18:26:00,
2013-08-29 14:27:00,86.1,64.1,29.91,South,180,0.0,0.0,48,0.00,,---,0.00,VWS V14.01,2013-08-29 18:27:00,
2013-08-29 14:29:00,85.9,64.0,29.91,South,180,0.0,0.0,48,0.00,,---,0.00,VWS V14.01,2013-08-29 18:29:00,
2013-08-29 14:30:00,85.9,64.0,29.91,South,180,0.0,0.0,48,0.00,,---,0.00,VWS V14.01,2013-08-29 18:30:00,
2013-08-29 14:31:00,85.9,64.0,29.91,South,180,0.0,0.0,48,0.00,,---,0.00,VWS V14.01,2013-08-29 18:31:00,
2013-08-29 14:32:00,85.9,63.3,29.92,South,180,0.0,0.0,47,0.00,,---,0.00,VWS V14.01,2013-08-29 18:32:00,
2013-08-29 14:35:00,85.8,63.9,29.91,South,180,0.0,0.0,48,0.00,,---,0.00,VWS V14.01,2013-08-29 18:35:00,
2013-08-29 14:36:00,85.9,64.5,29.92,South,180,0.0,0.0,49,0.00,,---,0.00,VWS V14.01,2013-08-29 18:36:00,
2013-08-29 14:37:00,85.9,64.5,29.91,South,180,0.0,0.0,49,0.00,,---,0.00,VWS V14.01,2013-08-29 18:37:00,
2013-08-29 14:38:00,85.9,64.5,29.91,South,180,0.0,0.0,49,0.00,,---,0.00,VWS V14.01,2013-08-29 18:38:00,
2013-08-29 14:40:00,86.1,64.7,29.92,South,180,0.0,0.0,49,0.00,,---,0.00,VWS V14.01,2013-08-29 18:40:00,
2013-08-29 14:42:00,86.3,64.9,29.92,South,180,0.0,0.0,49,0.00,,---,0.00,VWS V14.01,2013-08-29 18:42:00,
2013-08-29 14:43:00,86.3,64.9,29.91,South,180,0.0,0.0,49,0.00,,---,0.00,VWS V14.01,2013-08-29 18:43:00,
2013-08-29 14:45:00,86.3,64.3,29.91,South,180,0.0,0.0,48,0.00,,---,0.00,VWS V14.01,2013-08-29 18:45:00,
2013-08-29 14:47:00,86.3,63.7,29.91,South,180,0.0,0.0,47,0.00,,---,0.00,VWS V14.01,2013-08-29 18:47:00,
2013-08-29 14:48:00,86.5,63.9,29.91,South,180,0.0,0.0,47,0.00,,---,0.00,VWS V14.01,2013-08-29 18:48:00,
2013-08-29 14:50:00,86.7,64.7,29.91,South,180,0.0,0.0,48,0.00,,---,0.00,VWS V14.01,2013-08-29 18:50:00,
2013-08-29 14:51:00,86.7,64.7,29.91,South,180,0.0,0.0,48,0.00,,---,0.00,VWS V14.01,2013-08-29 18:51:00,
2013-08-29 14:52:00,86.7,64.7,29.91,South,180,0.0,0.0,48,0.00,,---,0.00,VWS V14.01,2013-08-29 18:52:00,
2013-08-29 14:53:00,87.0,65.6,29.91,South,180,0.0,0.0,49,0.00,,---,0.00,VWS V14.01,2013-08-29 18:53:00,
2013-08-29 14:55:00,86.8,64.8,29.91,South,180,0.0,0.0,48,0.00,,---,0.00,VWS V14.01,2013-08-29 18:55:00,
2013-08-29 14:56:00,87.0,65.0,29.91,South,180,0.0,0.0,48,0.00,,---,0.00,VWS V14.01,2013-08-29 18:56:00,
2013-08-29 14:58:00,87.0,65.0,29.91,South,180,0.0,0.0,48,0.00,,---,0.00,VWS V14.01,2013-08-29 18:58:00,
2013-08-29 14:59:00,87.0,65.0,29.91,South,180,0.0,0.0,48,0.00,,---,0.00,VWS V14.01,2013-08-29 18:59:00,
2013-08-29 15:01:00,87.2,63.3,29.90,South,180,0.0,0.0,45,0.00,,---,0.00,VWS V14.01,2013-08-29 19:01:00,
2013-08-29 15:02:00,87.2,63.3,29.90,South,180,0.0,0.0,45,0.00,,---,0.00,VWS V14.01,2013-08-29 19:02:00,
2013-08-29 15:03:00,87.4,62.8,29.90,SW,225,0.0,0.0,44,0.00,,---,0.00,VWS V14.01,2013-08-29 19:03:00,
2013-08-29 15:04:00,87.4,62.8,29.90,SW,225,0.0,0.0,44,0.00,,---,0.00,VWS V14.01,2013-08-29 19:04:00,
2013-08-29 15:07:00,87.6,63.0,29.91,West,270,0.0,0.0,44,0.00,,---,0.00,VWS V14.01,2013-08-29 19:07:00,
2013-08-29 15:08:00,87.4,62.8,29.91,West,270,0.0,0.0,44,0.00,,---,0.00,VWS V14.01,2013-08-29 19:08:00,
2013-08-29 15:09:00,87.4,62.8,29.91,West,270,0.0,0.0,44,0.00,,---,0.00,VWS V14.01,2013-08-29 19:09:00,
2013-08-29 15:12:00,87.4,62.8,29.90,West,270,0.0,0.0,44,0.00,,---,0.00,VWS V14.01,2013-08-29 19:12:00,
2013-08-29 15:14:00,87.4,62.8,29.90,SSW,202,0.0,0.0,44,0.00,,---,0.00,VWS V14.01,2013-08-29 19:14:00,
2013-08-29 15:18:00,87.0,63.1,29.90,SSW,202,0.0,0.0,45,0.00,,---,0.00,VWS V14.01,2013-08-29 19:18:00,
2013-08-29 15:19:00,87.2,63.3,29.90,SSW,202,0.0,0.0,45,0.00,,---,0.00,VWS V14.01,2013-08-29 19:19:00,
2013-08-29 15:20:00,87.2,63.3,29.90,SSW,202,0.0,0.0,45,0.00,,---,0.00,VWS V14.01,2013-08-29 19:20:00,
2013-08-29 15:23:00,86.7,64.1,29.90,SSW,202,0.0,0.0,47,0.00,,---,0.00,VWS V14.01,2013-08-29 19:23:00,
2013-08-29 15:24:00,86.7,64.1,29.90,SSW,202,0.0,0.0,47,0.00,,---,0.00,VWS V14.01,2013-08-29 19:24:00,
2013-08-29 15:25:00,86.7,64.1,29.90,SSW,202,0.0,0.0,47,0.00,,---,0.00,VWS V14.01,2013-08-29 19:25:00,
2013-08-29 15:26:00,86.7,64.1,29.90,SSW,202,0.0,0.0,47,0.00,,---,0.00,VWS V14.01,2013-08-29 19:26:00,
2013-08-29 15:28:00,86.3,64.3,29.89,SSW,202,0.0,0.0,48,0.00,,---,0.00,VWS V14.01,2013-08-29 19:28:00,
2013-08-29 15:29:00,86.3,64.3,29.89,SSW,202,0.0,0.0,48,0.00,,---,0.00,VWS V14.01,2013-08-29 19:29:00,
2013-08-29 15:30:00,86.1,64.1,29.90,SSW,202,0.0,0.0,48,0.00,,---,0.00,VWS V14.01,2013-08-29 19:30:00,
2013-08-29 15:31:00,86.1,64.7,29.90,SSW,202,0.0,0.0,49,0.00,,---,0.00,VWS V14.01,2013-08-29 19:31:00,
2013-08-29 15:32:00,86.1,64.7,29.90,SSW,202,0.0,0.0,49,0.00,,---,0.00,VWS V14.01,2013-08-29 19:32:00,
2013-08-29 15:33:00,85.9,64.5,29.89,SSW,202,0.0,0.0,49,0.00,,---,0.00,VWS V14.01,2013-08-29 19:33:00,
2013-08-29 15:35:00,85.9,64.5,29.90,SSW,202,0.0,0.0,49,0.00,,---,0.00,VWS V14.01,2013-08-29 19:35:00,
2013-08-29 15:36:00,85.9,64.5,29.90,SSW,202,0.0,0.0,49,0.00,,---,0.00,VWS V14.01,2013-08-29 19:36:00,
2013-08-29 15:38:00,85.4,64.7,29.90,SSW,202,0.0,0.0,50,0.00,,---,0.00,VWS V14.01,2013-08-29 19:38:00,
2013-08-29 15:40:00,85.4,64.7,29.89,SSW,202,0.0,0.0,50,0.00,,---,0.00,VWS V14.01,2013-08-29 19:40:00,
2013-08-29 15:41:00,85.0,64.3,29.89,SSW,202,0.0,0.0,50,0.00,,---,0.00,VWS V14.01,2013-08-29 19:41:00,
2013-08-29 15:42:00,85.0,64.3,29.89,SSW,202,0.0,0.0,50,0.00,,---,0.00,VWS V14.01,2013-08-29 19:42:00,
2013-08-29 15:43:00,84.9,64.2,29.90,SSW,202,0.0,0.0,50,0.00,,---,0.00,VWS V14.01,2013-08-29 19:43:00,
2013-08-29 15:44:00,84.9,64.2,29.89,SSW,202,0.0,0.0,50,0.00,,---,0.00,VWS V14.01,2013-08-29 19:44:00,
2013-08-29 15:46:00,84.9,64.8,29.89,SSW,202,0.0,0.0,51,0.00,,---,0.00,VWS V14.01,2013-08-29 19:46:00,
2013-08-29 15:47:00,84.9,64.8,29.89,SSW,202,0.0,0.0,51,0.00,,---,0.00,VWS V14.01,2013-08-29 19:47:00,
2013-08-29 15:49:00,85.2,65.1,29.89,SSW,202,0.0,0.0,51,0.00,,---,0.00,VWS V14.01,2013-08-29 19:49:00,
2013-08-29 15:51:00,85.4,65.8,29.89,SSW,202,0.0,0.0,52,0.00,,---,0.00,VWS V14.01,2013-08-29 19:51:00,
2013-08-29 15:52:00,85.9,66.2,29.89,SSW,202,0.0,0.0,52,0.00,,---,0.00,VWS V14.01,2013-08-29 19:52:00,
2013-08-29 15:54:00,86.5,66.2,29.89,SSW,202,0.0,0.0,51,0.00,,---,0.00,VWS V14.01,2013-08-29 19:54:00,
2013-08-29 15:56:00,86.7,65.3,29.89,SSW,202,0.0,0.0,49,0.00,,---,0.00,VWS V14.01,2013-08-29 19:56:00,
2013-08-29 15:57:00,86.7,65.3,29.89,SSW,202,0.0,0.0,49,0.00,,---,0.00,VWS V14.01,2013-08-29 19:57:00,
2013-08-29 15:59:00,87.0,65.0,29.89,SSW,202,0.0,0.0,48,0.00,,---,0.00,VWS V14.01,2013-08-29 19:59:00,
2013-08-29 16:00:00,87.0,65.0,29.89,SSW,202,0.0,0.0,48,0.00,,---,0.00,VWS V14.01,2013-08-29 20:00:00,
2013-08-29 16:02:00,87.2,64.5,29.89,SSW,202,0.0,0.0,47,0.00,,---,0.00,VWS V14.01,2013-08-29 20:02:00,
2013-08-29 16:03:00,87.2,64.5,29.89,SSW,202,0.0,0.0,47,0.00,,---,0.00,VWS V14.01,2013-08-29 20:03:00,
2013-08-29 16:04:00,87.4,65.3,29.89,SSW,202,0.0,0.0,48,0.00,,---,0.00,VWS V14.01,2013-08-29 20:04:00,
2013-08-29 16:05:00,87.4,65.3,29.89,SSW,202,0.0,0.0,48,0.00,,---,0.00,VWS V14.01,2013-08-29 20:05:00,
2013-08-29 16:06:00,87.7,65.0,29.89,SSW,202,0.0,0.0,47,0.00,,---,0.00,VWS V14.01,2013-08-29 20:06:00,
2013-08-29 16:07:00,87.9,63.9,29.89,SSW,202,0.0,0.0,45,0.00,,---,0.00,VWS V14.01,2013-08-29 20:07:00,
2013-08-29 16:09:00,88.3,64.3,29.89,SSW,202,0.0,0.0,45,0.00,,---,0.00,VWS V14.01,2013-08-29 20:09:00,
2013-08-29 16:10:00,88.3,64.3,29.89,SSW,202,0.0,0.0,45,0.00,,---,0.00,VWS V14.01,2013-08-29 20:10:00,
2013-08-29 16:11:00,88.5,64.5,29.89,SSW,202,0.0,0.0,45,0.00,,---,0.00,VWS V14.01,2013-08-29 20:11:00,
2013-08-29 16:12:00,88.5,64.5,29.89,SSW,202,0.0,0.0,45,0.00,,---,0.00,VWS V14.01,2013-08-29 20:12:00,
2013-08-29 16:13:00,88.5,64.5,29.89,SSW,202,0.0,0.0,45,0.00,,---,0.00,VWS V14.01,2013-08-29 20:13:00,
2013-08-29 16:14:00,88.5,63.8,29.89,SSW,202,0.0,0.0,44,0.00,,---,0.00,VWS V14.01,2013-08-29 20:14:00,
2013-08-29 16:15:00,88.6,63.3,29.89,WSW,248,0.0,0.0,43,0.00,,---,0.00,VWS V14.01,2013-08-29 20:15:00,
2013-08-29 16:17:00,88.8,63.4,29.89,WSW,248,0.0,0.0,43,0.00,,---,0.00,VWS V14.01,2013-08-29 20:17:00,
2013-08-29 16:18:00,88.8,63.4,29.89,WSW,248,0.0,0.0,43,0.00,,---,0.00,VWS V14.01,2013-08-29 20:18:00,
2013-08-29 16:19:00,88.8,63.4,29.89,WSW,248,0.0,0.0,43,0.00,,---,0.00,VWS V14.01,2013-08-29 20:19:00,
2013-08-29 16:20:00,89.0,63.6,29.89,WSW,248,0.0,0.0,43,0.00,,---,0.00,VWS V14.01,2013-08-29 20:20:00,
2013-08-29 16:21:00,89.0,63.6,29.89,WSW,248,0.0,0.0,43,0.00,,---,0.00,VWS V14.01,2013-08-29 20:21:00,
2013-08-29 16:22:00,89.2,63.8,29.89,WSW,248,0.0,0.0,43,0.00,,---,0.00,VWS V14.01,2013-08-29 20:22:00,
2013-08-29 16:24:00,89.4,64.0,29.89,WSW,248,0.0,0.0,43,0.00,,---,0.00,VWS V14.01,2013-08-29 20:24:00,
2013-08-29 16:26:00,89.5,63.4,29.89,WSW,248,0.0,0.0,42,0.00,,---,0.00,VWS V14.01,2013-08-29 20:26:00,
2013-08-29 16:27:00,89.5,63.4,29.89,WSW,248,0.0,0.0,42,0.00,,---,0.00,VWS V14.01,2013-08-29 20:27:00,
2013-08-29 16:28:00,89.5,63.4,29.89,WSW,248,0.0,0.0,42,0.00,,---,0.00,VWS V14.01,2013-08-29 20:28:00,
2013-08-29 16:30:00,89.5,63.4,29.88,WSW,248,0.0,0.0,42,0.00,,---,0.00,VWS V14.01,2013-08-29 20:30:00,
2013-08-29 16:31:00,89.5,63.4,29.88,WSW,248,0.0,0.0,42,0.00,,---,0.00,VWS V14.01,2013-08-29 20:31:00,
2013-08-29 16:32:00,89.5,63.4,29.89,WSW,248,0.0,0.0,42,0.00,,---,0.00,VWS V14.01,2013-08-29 20:32:00,
2013-08-29 16:33:00,89.5,63.4,29.89,WSW,248,0.0,0.0,42,0.00,,---,0.00,VWS V14.01,2013-08-29 20:33:00,
2013-08-29 16:35:00,89.5,63.4,29.89,SW,225,0.0,0.0,42,0.00,,---,0.00,VWS V14.01,2013-08-29 20:35:00,
2013-08-29 16:36:00,89.5,63.4,29.89,SW,225,0.0,0.0,42,0.00,,---,0.00,VWS V14.01,2013-08-29 20:36:00,
2013-08-29 16:37:00,89.5,64.1,29.89,WSW,248,0.0,0.0,43,0.00,,---,0.00,VWS V14.01,2013-08-29 20:37:00,
2013-08-29 16:38:00,89.5,64.1,29.88,WSW,248,0.0,0.0,43,0.00,,---,0.00,VWS V14.01,2013-08-29 20:38:00,
2013-08-29 16:42:00,89.5,64.1,29.88,WSW,248,0.0,0.0,43,0.00,,---,0.00,VWS V14.01,2013-08-29 20:42:00,
2013-08-29 16:43:00,89.5,64.1,29.88,WSW,248,0.0,0.0,43,0.00,,---,0.00,VWS V14.01,2013-08-29 20:43:00,
2013-08-29 16:44:00,89.5,64.1,29.88,WSW,248,0.0,0.0,43,0.00,,---,0.00,VWS V14.01,2013-08-29 20:44:00,
2013-08-29 16:47:00,89.9,63.8,29.88,WSW,248,0.0,0.0,42,0.00,,---,0.00,VWS V14.01,2013-08-29 20:47:00,
2013-08-29 16:49:00,89.9,63.8,29.88,WSW,248,0.0,0.0,42,0.00,,---,0.00,VWS V14.01,2013-08-29 20:49:00,
2013-08-29 16:51:00,89.7,63.6,29.88,SW,225,0.0,0.0,42,0.00,,---,0.00,VWS V14.01,2013-08-29 20:51:00,
2013-08-29 16:52:00,89.7,62.9,29.88,SW,225,0.0,0.0,41,0.00,,---,0.00,VWS V14.01,2013-08-29 20:52:00,
2013-08-29 16:54:00,90.1,63.2,29.88,SW,225,0.0,0.0,41,0.00,,---,0.00,VWS V14.01,2013-08-29 20:54:00,
2013-08-29 16:56:00,90.1,63.2,29.88,SW,225,0.0,0.0,41,0.00,,---,0.00,VWS V14.01,2013-08-29 20:56:00,
2013-08-29 16:59:00,90.3,62.0,29.88,WSW,248,0.0,0.0,39,0.00,,---,0.00,VWS V14.01,2013-08-29 20:59:00,
2013-08-29 17:00:00,90.3,62.0,29.88,WSW,248,0.0,0.0,39,0.00,,---,0.00,VWS V14.01,2013-08-29 21:00:00,
2013-08-29 17:01:00,90.6,63.7,29.88,WSW,248,0.0,0.0,41,0.00,,---,0.00,VWS V14.01,2013-08-29 21:01:00,
2013-08-29 17:04:00,90.8,64.6,29.88,WSW,248,0.0,0.0,42,0.00,,---,0.00,VWS V14.01,2013-08-29 21:04:00,
2013-08-29 17:05:00,90.8,63.2,29.88,SW,225,0.0,0.0,40,0.00,,---,0.00,VWS V14.01,2013-08-29 21:05:00,
2013-08-29 17:06:00,90.8,63.2,29.88,SW,225,0.0,0.0,40,0.00,,---,0.00,VWS V14.01,2013-08-29 21:06:00,
2013-08-29 17:07:00,90.6,63.7,29.88,SW,225,0.0,0.0,41,0.00,,---,0.00,VWS V14.01,2013-08-29 21:07:00,
2013-08-29 17:09:00,90.6,63.0,29.88,SSW,202,0.0,0.0,40,0.00,,---,0.00,VWS V14.01,2013-08-29 21:09:00,
2013-08-29 17:10:00,90.6,63.0,29.88,SSW,202,0.0,0.0,40,0.00,,---,0.00,VWS V14.01,2013-08-29 21:10:00,
2013-08-29 17:11:00,90.8,63.2,29.87,SW,225,0.0,0.0,40,0.00,,---,0.00,VWS V14.01,2013-08-29 21:11:00,
2013-08-29 17:12:00,90.8,63.2,29.88,SW,225,0.0,0.0,40,0.00,,---,0.00,VWS V14.01,2013-08-29 21:12:00,
2013-08-29 17:14:00,90.8,63.9,29.88,SW,225,0.0,0.0,41,0.00,,---,0.00,VWS V14.01,2013-08-29 21:14:00,
2013-08-29 17:15:00,90.8,63.9,29.88,SW,225,0.0,0.0,41,0.00,,---,0.00,VWS V14.01,2013-08-29 21:15:00,
2013-08-29 17:16:00,91.3,63.6,29.88,SW,225,0.0,0.0,40,0.00,,---,0.00,VWS V14.01,2013-08-29 21:16:00,
2013-08-29 17:17:00,91.2,62.1,29.88,NW,315,0.0,0.0,38,0.00,,---,0.00,VWS V14.01,2013-08-29 21:17:00,
2013-08-29 17:19:00,90.8,61.7,29.88,NW,315,0.0,0.0,38,0.00,,---,0.00,VWS V14.01,2013-08-29 21:19:00,
2013-08-29 17:20:00,90.8,61.7,29.88,NW,315,0.0,0.0,38,0.00,,---,0.00,VWS V14.01,2013-08-29 21:20:00,
2013-08-29 17:21:00,90.8,61.7,29.88,NW,315,0.0,0.0,38,0.00,,---,0.00,VWS V14.01,2013-08-29 21:21:00,
2013-08-29 17:22:00,90.6,63.0,29.88,NW,315,0.0,0.0,40,0.00,,---,0.00,VWS V14.01,2013-08-29 21:22:00,
2013-08-29 17:23:00,90.6,63.0,29.88,NW,315,0.0,0.0,40,0.00,,---,0.00,VWS V14.01,2013-08-29 21:23:00,
2013-08-29 17:25:00,90.6,63.7,29.88,NW,315,0.0,0.0,41,0.00,,---,0.00,VWS V14.01,2013-08-29 21:25:00,
2013-08-29 17:26:00,90.6,64.4,29.88,SW,225,0.0,0.0,42,0.00,,---,0.00,VWS V14.01,2013-08-29 21:26:00,
2013-08-29 17:27:00,90.6,64.4,29.88,SW,225,0.0,0.0,42,0.00,,---,0.00,VWS V14.01,2013-08-29 21:27:00,
2013-08-29 17:28:00,90.3,63.4,29.88,SW,225,0.0,0.0,41,0.00,,---,0.00,VWS V14.01,2013-08-29 21:28:00,
2013-08-29 17:29:00,90.3,63.4,29.88,SW,225,0.0,0.0,41,0.00,,---,0.00,VWS V14.01,2013-08-29 21:29:00,
2013-08-29 17:30:00,90.3,63.4,29.88,SW,225,0.0,0.0,41,0.00,,---,0.00,VWS V14.01,2013-08-29 21:30:00,
2013-08-29 17:31:00,89.9,63.1,29.88,SW,225,0.0,0.0,41,0.00,,---,0.00,VWS V14.01,2013-08-29 21:31:00,
2013-08-29 17:34:00,89.9,64.4,29.88,SW,225,0.0,0.0,43,0.00,,---,0.00,VWS V14.01,2013-08-29 21:34:00,
2013-08-29 17:35:00,89.9,64.4,29.88,SW,225,0.0,0.0,43,0.00,,---,0.00,VWS V14.01,2013-08-29 21:35:00,
2013-08-29 17:36:00,89.9,64.4,29.88,SW,225,0.0,0.0,43,0.00,,---,0.00,VWS V14.01,2013-08-29 21:36:00,
2013-08-29 17:39:00,89.2,64.5,29.88,SW,225,0.0,0.0,44,0.00,,---,0.00,VWS V14.01,2013-08-29 21:39:00,
2013-08-29 17:40:00,89.2,64.5,29.87,SW,225,0.0,0.0,44,0.00,,---,0.00,VWS V14.01,2013-08-29 21:40:00,
2013-08-29 17:41:00,89.2,64.5,29.87,SW,225,0.0,0.0,44,0.00,,---,0.00,VWS V14.01,2013-08-29 21:41:00,
2013-08-29 17:45:00,88.6,63.9,29.88,SW,225,0.0,0.0,44,0.00,,---,0.00,VWS V14.01,2013-08-29 21:45:00,
2013-08-29 17:46:00,88.3,64.9,29.88,SW,225,0.0,0.0,46,0.00,,---,0.00,VWS V14.01,2013-08-29 21:46:00,
2013-08-29 17:47:00,88.3,64.9,29.87,SW,225,0.0,0.0,46,0.00,,---,0.00,VWS V14.01,2013-08-29 21:47:00,
2013-08-29 17:50:00,87.6,64.9,29.88,SW,225,0.0,0.0,47,0.00,,---,0.00,VWS V14.01,2013-08-29 21:50:00,
2013-08-29 17:51:00,87.6,64.9,29.88,SW,225,0.0,0.0,47,0.00,,---,0.00,VWS V14.01,2013-08-29 21:51:00,
2013-08-29 17:52:00,87.6,64.9,29.88,SW,225,0.0,0.0,47,0.00,,---,0.00,VWS V14.01,2013-08-29 21:52:00,
2013-08-29 17:56:00,87.2,64.5,29.88,SW,225,0.0,0.0,47,0.00,,---,0.00,VWS V14.01,2013-08-29 21:56:00,
2013-08-29 17:57:00,87.2,64.5,29.88,SW,225,0.0,0.0,47,0.00,,---,0.00,VWS V14.01,2013-08-29 21:57:00,
2013-08-29 17:58:00,87.0,64.3,29.88,SW,225,0.0,0.0,47,0.00,,---,0.00,VWS V14.01,2013-08-29 21:58:00,
2013-08-29 18:01:00,87.0,64.3,29.87,SW,225,0.0,0.0,47,0.00,,---,0.00,VWS V14.01,2013-08-29 22:01:00,
2013-08-29 18:02:00,86.7,64.1,29.87,SW,225,0.0,0.0,47,0.00,,---,0.00,VWS V14.01,2013-08-29 22:02:00,
2013-08-29 18:03:00,86.7,64.1,29.87,SW,225,0.0,0.0,47,0.00,,---,0.00,VWS V14.01,2013-08-29 22:03:00,
2013-08-29 18:06:00,86.7,65.9,29.87,SW,225,0.0,0.0,50,0.00,,---,0.00,VWS V14.01,2013-08-29 22:06:00,
2013-08-29 18:07:00,86.7,65.9,29.87,SW,225,0.0,0.0,50,0.00,,---,0.00,VWS V14.01,2013-08-29 22:07:00,
2013-08-29 18:08:00,86.7,65.9,29.87,SW,225,0.0,0.0,50,0.00,,---,0.00,VWS V14.01,2013-08-29 22:08:00,
2013-08-29 18:09:00,86.5,65.1,29.87,SW,225,0.0,0.0,49,0.00,,---,0.00,VWS V14.01,2013-08-29 22:09:00,
2013-08-29 18:11:00,86.7,65.9,29.87,SW,225,0.0,0.0,50,0.00,,---,0.00,VWS V14.01,2013-08-29 22:11:00,
2013-08-29 18:12:00,86.7,65.9,29.87,SW,225,0.0,0.0,50,0.00,,---,0.00,VWS V14.01,2013-08-29 22:12:00,
2013-08-29 18:13:00,86.7,65.9,29.87,SW,225,0.0,0.0,50,0.00,,---,0.00,VWS V14.01,2013-08-29 22:13:00,
2013-08-29 18:14:00,86.7,65.9,29.87,SW,225,0.0,0.0,50,0.00,,---,0.00,VWS V14.01,2013-08-29 22:14:00,
2013-08-29 18:15:00,86.7,65.9,29.87,SW,225,0.0,0.0,50,0.00,,---,0.00,VWS V14.01,2013-08-29 22:15:00,
2013-08-29 18:16:00,86.7,65.9,29.87,SW,225,0.0,0.0,50,0.00,,---,0.00,VWS V14.01,2013-08-29 22:16:00,
2013-08-29 18:17:00,86.8,65.4,29.87,SW,225,0.0,0.0,49,0.00,,---,0.00,VWS V14.01,2013-08-29 22:17:00,
2013-08-29 18:19:00,86.8,65.4,29.87,SW,225,0.0,0.0,49,0.00,,---,0.00,VWS V14.01,2013-08-29 22:19:00,
2013-08-29 18:20:00,87.2,65.1,29.87,SW,225,0.0,0.0,48,0.00,,---,0.00,VWS V14.01,2013-08-29 22:20:00,
2013-08-29 18:21:00,87.4,65.3,29.87,SW,225,0.0,0.0,48,0.00,,---,0.00,VWS V14.01,2013-08-29 22:21:00,
2013-08-29 18:22:00,87.4,65.3,29.87,SW,225,0.0,0.0,48,0.00,,---,0.00,VWS V14.01,2013-08-29 22:22:00,
2013-08-29 18:23:00,87.7,65.6,29.87,SW,225,0.0,0.0,48,0.00,,---,0.00,VWS V14.01,2013-08-29 22:23:00,
2013-08-29 18:24:00,87.7,65.6,29.87,SW,225,0.0,0.0,48,0.00,,---,0.00,VWS V14.01,2013-08-29 22:24:00,
2013-08-29 18:25:00,87.7,65.0,29.87,SW,225,0.0,0.0,47,0.00,,---,0.00,VWS V14.01,2013-08-29 22:25:00,
2013-08-29 18:27:00,87.7,65.0,29.87,SW,225,0.0,0.0,47,0.00,,---,0.00,VWS V14.01,2013-08-29 22:27:00,
2013-08-29 18:28:00,87.9,64.6,29.87,SW,225,0.0,0.0,46,0.00,,---,0.00,VWS V14.01,2013-08-29 22:28:00,
2013-08-29 18:29:00,87.9,64.6,29.87,SW,225,0.0,0.0,46,0.00,,---,0.00,VWS V14.01,2013-08-29 22:29:00,
2013-08-29 18:31:00,87.7,63.1,29.87,SW,225,0.0,0.0,44,0.00,,---,0.00,VWS V14.01,2013-08-29 22:31:00,
2013-08-29 18:32:00,87.9,63.3,29.87,SW,225,0.0,0.0,44,0.00,,---,0.00,VWS V14.01,2013-08-29 22:32:00,
2013-08-29 18:33:00,87.9,63.3,29.87,SW,225,0.0,0.0,44,0.00,,---,0.00,VWS V14.01,2013-08-29 22:33:00,
2013-08-29 18:34:00,87.9,62.6,29.87,SW,225,0.0,0.0,43,0.00,,---,0.00,VWS V14.01,2013-08-29 22:34:00,
2013-08-29 18:37:00,87.7,62.5,29.87,SW,225,0.0,0.0,43,0.00,,---,0.00,VWS V14.01,2013-08-29 22:37:00,
2013-08-29 18:38:00,87.7,62.5,29.87,SW,225,0.0,0.0,43,0.00,,---,0.00,VWS V14.01,2013-08-29 22:38:00,
2013-08-29 18:39:00,87.7,62.5,29.87,SW,225,0.0,0.0,43,0.00,,---,0.00,VWS V14.01,2013-08-29 22:39:00,
2013-08-29 18:40:00,87.7,62.5,29.87,SW,225,0.0,0.0,43,0.00,,---,0.00,VWS V14.01,2013-08-29 22:40:00,
2013-08-29 18:43:00,87.7,62.5,29.87,SW,225,0.0,0.0,43,0.00,,---,0.00,VWS V14.01,2013-08-29 22:43:00,
2013-08-29 18:44:00,87.7,62.5,29.87,SW,225,0.0,0.0,43,0.00,,---,0.00,VWS V14.01,2013-08-29 22:44:00,
2013-08-29 18:45:00,87.7,62.5,29.87,SW,225,0.0,0.0,43,0.00,,---,0.00,VWS V14.01,2013-08-29 22:45:00,
2013-08-29 18:48:00,87.7,62.5,29.87,SW,225,0.0,0.0,43,0.00,,---,0.00,VWS V14.01,2013-08-29 22:48:00,
2013-08-29 18:49:00,87.2,62.0,29.87,SW,225,0.0,0.0,43,0.00,,---,0.00,VWS V14.01,2013-08-29 22:49:00,
2013-08-29 18:50:00,87.2,62.0,29.87,SW,225,0.0,0.0,43,0.00,,---,0.00,VWS V14.01,2013-08-29 22:50:00,
2013-08-29 18:51:00,87.2,62.0,29.87,SW,225,0.0,0.0,43,0.00,,---,0.00,VWS V14.01,2013-08-29 22:51:00,
2013-08-29 18:53:00,87.0,62.5,29.87,SW,225,0.0,0.0,44,0.00,,---,0.00,VWS V14.01,2013-08-29 22:53:00,
2013-08-29 18:55:00,87.0,61.8,29.87,SW,225,0.0,0.0,43,0.00,,---,0.00,VWS V14.01,2013-08-29 22:55:00,
2013-08-29 18:56:00,87.0,61.8,29.87,SW,225,0.0,0.0,43,0.00,,---,0.00,VWS V14.01,2013-08-29 22:56:00,
2013-08-29 18:57:00,86.8,62.3,29.87,SW,225,0.0,0.0,44,0.00,,---,0.00,VWS V14.01,2013-08-29 22:57:00,
2013-08-29 18:58:00,86.8,62.3,29.87,SW,225,0.0,0.0,44,0.00,,---,0.00,VWS V14.01,2013-08-29 22:58:00,
2013-08-29 19:01:00,86.7,61.5,29.88,SW,225,0.0,0.0,43,0.00,,---,0.00,VWS V14.01,2013-08-29 23:01:00,
2013-08-29 19:02:00,86.7,62.2,29.88,SW,225,0.0,0.0,44,0.00,,---,0.00,VWS V14.01,2013-08-29 23:02:00,
2013-08-29 19:03:00,86.7,62.2,29.88,SW,225,0.0,0.0,44,0.00,,---,0.00,VWS V14.01,2013-08-29 23:03:00,
2013-08-29 19:06:00,86.1,62.3,29.88,SW,225,0.0,0.0,45,0.00,,---,0.00,VWS V14.01,2013-08-29 23:06:00,
2013-08-29 19:08:00,86.1,62.3,29.88,SW,225,0.0,0.0,45,0.00,,---,0.00,VWS V14.01,2013-08-29 23:08:00,
2013-08-29 19:09:00,85.9,62.1,29.89,SW,225,0.0,0.0,45,0.00,,---,0.00,VWS V14.01,2013-08-29 23:09:00,
2013-08-29 19:11:00,85.8,62.7,29.89,SW,225,0.0,0.0,46,0.00,,---,0.00,VWS V14.01,2013-08-29 23:11:00,
2013-08-29 19:12:00,85.6,62.5,29.89,SW,225,0.0,0.0,46,0.00,,---,0.00,VWS V14.01,2013-08-29 23:12:00,
2013-08-29 19:13:00,85.6,62.5,29.89,SW,225,0.0,0.0,46,0.00,,---,0.00,VWS V14.01,2013-08-29 23:13:00,
2013-08-29 19:14:00,85.6,62.5,29.89,SW,225,0.0,0.0,46,0.00,,---,0.00,VWS V14.01,2013-08-29 23:14:00,
2013-08-29 19:16:00,85.4,62.3,29.89,SW,225,0.0,0.0,46,0.00,,---,0.00,VWS V14.01,2013-08-29 23:16:00,
2013-08-29 19:17:00,85.2,62.1,29.89,SW,225,0.0,0.0,46,0.00,,---,0.00,VWS V14.01,2013-08-29 23:17:00,
2013-08-29 19:18:00,85.2,62.1,29.89,SW,225,0.0,0.0,46,0.00,,---,0.00,VWS V14.01,2013-08-29 23:18:00,
2013-08-29 19:19:00,85.2,62.1,29.89,SW,225,0.0,0.0,46,0.00,,---,0.00,VWS V14.01,2013-08-29 23:19:00,
2013-08-29 19:21:00,84.9,62.4,29.89,SW,225,0.0,0.0,47,0.00,,---,0.00,VWS V14.01,2013-08-29 23:21:00,
2013-08-29 19:23:00,84.9,62.4,29.89,SW,225,0.0,0.0,47,0.00,,---,0.00,VWS V14.01,2013-08-29 23:23:00,
2013-08-29 19:24:00,84.9,62.4,29.89,SW,225,0.0,0.0,47,0.00,,---,0.00,VWS V14.01,2013-08-29 23:24:00,
2013-08-29 19:25:00,84.9,62.4,29.89,SW,225,0.0,0.0,47,0.00,,---,0.00,VWS V14.01,2013-08-29 23:25:00,
2013-08-29 19:26:00,84.9,62.4,29.89,SW,225,0.0,0.0,47,0.00,,---,0.00,VWS V14.01,2013-08-29 23:26:00,
2013-08-29 19:27:00,84.9,62.4,29.89,SW,225,0.0,0.0,47,0.00,,---,0.00,VWS V14.01,2013-08-29 23:27:00,
2013-08-29 19:29:00,84.9,62.4,29.89,SW,225,0.0,0.0,47,0.00,,---,0.00,VWS V14.01,2013-08-29 23:29:00,
2013-08-29 19:31:00,84.7,62.9,29.89,SW,225,0.0,0.0,48,0.00,,---,0.00,VWS V14.01,2013-08-29 23:31:00,
2013-08-29 19:32:00,84.5,63.8,29.89,SW,225,0.0,0.0,50,0.00,,---,0.00,VWS V14.01,2013-08-29 23:32:00,
2013-08-29 19:34:00,84.3,63.7,29.89,SW,225,0.0,0.0,50,0.00,,---,0.00,VWS V14.01,2013-08-29 23:34:00,
2013-08-29 19:37:00,84.3,63.7,29.89,SW,225,0.0,0.0,50,0.00,,---,0.00,VWS V14.01,2013-08-29 23:37:00,
2013-08-29 19:38:00,84.3,63.7,29.89,SW,225,0.0,0.0,50,0.00,,---,0.00,VWS V14.01,2013-08-29 23:38:00,
2013-08-29 19:39:00,84.1,63.5,29.88,SW,225,0.0,0.0,50,0.00,,---,0.00,VWS V14.01,2013-08-29 23:39:00,
2013-08-29 19:40:00,84.0,63.4,29.88,SW,225,0.0,0.0,50,0.00,,---,0.00,VWS V14.01,2013-08-29 23:40:00,
2013-08-29 19:43:00,84.0,63.4,29.88,SW,225,0.0,0.0,50,0.00,,---,0.00,VWS V14.01,2013-08-29 23:43:00,
2013-08-29 19:45:00,83.8,63.2,29.88,SW,225,0.0,0.0,50,0.00,,---,0.00,VWS V14.01,2013-08-29 23:45:00,
2013-08-29 19:47:00,84.1,64.0,29.88,SW,225,0.0,0.0,51,0.00,,---,0.00,VWS V14.01,2013-08-29 23:47:00,
2013-08-29 19:48:00,84.1,64.0,29.88,SW,225,0.0,0.0,51,0.00,,---,0.00,VWS V14.01,2013-08-29 23:48:00,
2013-08-29 19:49:00,83.8,63.8,29.88,SW,225,0.0,0.0,51,0.00,,---,0.00,VWS V14.01,2013-08-29 23:49:00,
2013-08-29 19:50:00,83.8,63.8,29.88,SW,225,0.0,0.0,51,0.00,,---,0.00,VWS V14.01,2013-08-29 23:50:00,
2013-08-29 19:53:00,83.6,63.6,29.89,SW,225,0.0,0.0,51,0.00,,---,0.00,VWS V14.01,2013-08-29 23:53:00,
2013-08-29 19:54:00,83.4,64.0,29.88,SW,225,0.0,0.0,52,0.00,,---,0.00,VWS V14.01,2013-08-29 23:54:00,
2013-08-29 19:55:00,83.4,64.5,29.88,SW,225,0.0,0.0,53,0.00,,---,0.00,VWS V14.01,2013-08-29 23:55:00,
2013-08-29 19:56:00,83.4,64.5,29.88,SW,225,0.0,0.0,53,0.00,,---,0.00,VWS V14.01,2013-08-29 23:56:00,
2013-08-29 19:58:00,83.4,64.5,29.89,SW,225,0.0,0.0,53,0.00,,---,0.00,VWS V14.01,2013-08-29 23:58:00,
2013-08-29 20:00:00,83.1,64.8,29.89,SW,225,0.0,0.0,54,0.00,,---,0.00,VWS V14.01,2013-08-30 00:00:00,
2013-08-29 20:01:00,83.1,64.8,29.89,SW,225,0.0,0.0,54,0.00,,---,0.00,VWS V14.01,2013-08-30 00:01:00,
2013-08-29 20:02:00,83.1,65.3,29.89,SW,225,0.0,0.0,55,0.00,,---,0.00,VWS V14.01,2013-08-30 00:02:00,
2013-08-29 20:03:00,83.1,65.3,29.89,SW,225,0.0,0.0,55,0.00,,---,0.00,VWS V14.01,2013-08-30 00:03:00,
2013-08-29 20:06:00,83.1,65.3,29.89,SW,225,0.0,0.0,55,0.00,,---,0.00,VWS V14.01,2013-08-30 00:06:00,
2013-08-29 20:08:00,83.1,66.3,29.89,SW,225,0.0,0.0,57,0.00,,---,0.00,VWS V14.01,2013-08-30 00:08:00,
2013-08-29 20:11:00,82.9,66.1,29.89,SW,225,0.0,0.0,57,0.00,,---,0.00,VWS V14.01,2013-08-30 00:11:00,
2013-08-29 20:13:00,82.9,66.6,29.89,SW,225,0.0,0.0,58,0.00,,---,0.00,VWS V14.01,2013-08-30 00:13:00,
2013-08-29 20:14:00,82.9,66.6,29.89,SW,225,0.0,0.0,58,0.00,,---,0.00,VWS V14.01,2013-08-30 00:14:00,
2013-08-29 20:16:00,82.9,66.6,29.89,SW,225,0.0,0.0,58,0.00,,---,0.00,VWS V14.01,2013-08-30 00:16:00,
2013-08-29 20:17:00,82.7,66.4,29.90,SW,225,0.0,0.0,58,0.00,,---,0.00,VWS V14.01,2013-08-30 00:17:00,
2013-08-29 20:18:00,82.5,66.2,29.90,SW,225,0.0,0.0,58,0.00,,---,0.00,VWS V14.01,2013-08-30 00:18:00,
2013-08-29 20:20:00,82.5,66.2,29.90,SW,225,0.0,0.0,58,0.00,,---,0.00,VWS V14.01,2013-08-30 00:20:00,
2013-08-29 20:21:00,82.5,66.2,29.90,SW,225,0.0,0.0,58,0.00,,---,0.00,VWS V14.01,2013-08-30 00:21:00,
2013-08-29 20:22:00,82.5,66.2,29.90,SW,225,0.0,0.0,58,0.00,,---,0.00,VWS V14.01,2013-08-30 00:22:00,
2013-08-29 20:23:00,82.3,66.1,29.90,SW,225,0.0,0.0,58,0.00,,---,0.00,VWS V14.01,2013-08-30 00:23:00,
2013-08-29 20:24:00,82.3,66.1,29.90,SW,225,0.0,0.0,58,0.00,,---,0.00,VWS V14.01,2013-08-30 00:24:00,
2013-08-29 20:25:00,82.3,65.6,29.90,SW,225,0.0,0.0,57,0.00,,---,0.00,VWS V14.01,2013-08-30 00:25:00,
2013-08-29 20:26:00,82.3,65.6,29.90,SW,225,0.0,0.0,57,0.00,,---,0.00,VWS V14.01,2013-08-30 00:26:00,
2013-08-29 20:28:00,82.2,66.0,29.90,SW,225,0.0,0.0,58,0.00,,---,0.00,VWS V14.01,2013-08-30 00:28:00,
2013-08-29 20:29:00,82.0,65.3,29.90,SW,225,0.0,0.0,57,0.00,,---,0.00,VWS V14.01,2013-08-30 00:29:00,
2013-08-29 20:30:00,82.0,65.3,29.90,SW,225,0.0,0.0,57,0.00,,---,0.00,VWS V14.01,2013-08-30 00:30:00,
2013-08-29 20:32:00,82.0,65.3,29.90,SW,225,0.0,0.0,57,0.00,,---,0.00,VWS V14.01,2013-08-30 00:32:00,
2013-08-29 20:33:00,81.8,65.1,29.90,SW,225,0.0,0.0,57,0.00,,---,0.00,VWS V14.01,2013-08-30 00:33:00,
2013-08-29 20:34:00,81.8,65.1,29.90,SW,225,0.0,0.0,57,0.00,,---,0.00,VWS V14.01,2013-08-30 00:34:00,
2013-08-29 20:35:00,81.8,65.1,29.90,SW,225,0.0,0.0,57,0.00,,---,0.00,VWS V14.01,2013-08-30 00:35:00,
2013-08-29 20:37:00,81.8,65.6,29.90,SW,225,0.0,0.0,58,0.00,,---,0.00,VWS V14.01,2013-08-30 00:37:00,
2013-08-29 20:39:00,81.6,65.4,29.90,SW,225,0.0,0.0,58,0.00,,---,0.00,VWS V14.01,2013-08-30 00:39:00,
2013-08-29 20:40:00,81.6,65.4,29.90,SW,225,0.0,0.0,58,0.00,,---,0.00,VWS V14.01,2013-08-30 00:40:00,
2013-08-29 20:42:00,81.4,65.2,29.90,SW,225,0.0,0.0,58,0.00,,---,0.00,VWS V14.01,2013-08-30 00:42:00,
2013-08-29 20:43:00,81.4,65.7,29.90,SW,225,0.0,0.0,59,0.00,,---,0.00,VWS V14.01,2013-08-30 00:43:00,
2013-08-29 20:44:00,81.3,65.6,29.90,SW,225,0.0,0.0,59,0.00,,---,0.00,VWS V14.01,2013-08-30 00:44:00,
2013-08-29 20:45:00,81.3,65.6,29.90,SW,225,0.0,0.0,59,0.00,,---,0.00,VWS V14.01,2013-08-30 00:45:00,
2013-08-29 20:47:00,81.3,65.6,29.90,SW,225,0.0,0.0,59,0.00,,---,0.00,VWS V14.01,2013-08-30 00:47:00,
2013-08-29 20:48:00,81.3,65.6,29.90,SW,225,0.0,0.0,59,0.00,,---,0.00,VWS V14.01,2013-08-30 00:48:00,
2013-08-29 20:49:00,81.3,65.6,29.90,SW,225,0.0,0.0,59,0.00,,---,0.00,VWS V14.01,2013-08-30 00:49:00,
2013-08-29 20:50:00,81.3,65.6,29.90,SW,225,0.0,0.0,59,0.00,,---,0.00,VWS V14.01,2013-08-30 00:50:00,
2013-08-29 20:51:00,81.3,65.6,29.90,SW,225,0.0,0.0,59,0.00,,---,0.00,VWS V14.01,2013-08-30 00:51:00,
2013-08-29 20:52:00,81.3,65.6,29.90,SW,225,0.0,0.0,59,0.00,,---,0.00,VWS V14.01,2013-08-30 00:52:00,
2013-08-29 20:54:00,81.3,65.6,29.90,SW,225,0.0,0.0,59,0.00,,---,0.00,VWS V14.01,2013-08-30 00:54:00,
2013-08-29 20:55:00,81.3,65.6,29.90,SW,225,0.0,0.0,59,0.00,,---,0.00,VWS V14.01,2013-08-30 00:55:00,
2013-08-29 20:56:00,81.1,65.9,29.90,SW,225,0.0,0.0,60,0.00,,---,0.00,VWS V14.01,2013-08-30 00:56:00,
2013-08-29 20:57:00,81.1,66.4,29.90,SW,225,0.0,0.0,61,0.00,,---,0.00,VWS V14.01,2013-08-30 00:57:00,
2013-08-29 20:58:00,81.1,66.4,29.90,SW,225,0.0,0.0,61,0.00,,---,0.00,VWS V14.01,2013-08-30 00:58:00,
2013-08-29 21:01:00,80.9,66.2,29.90,SW,225,0.0,0.0,61,0.00,,---,0.00,VWS V14.01,2013-08-30 01:01:00,
2013-08-29 21:02:00,81.1,66.9,29.90,SW,225,0.0,0.0,62,0.00,,---,0.00,VWS V14.01,2013-08-30 01:02:00,
2013-08-29 21:03:00,81.1,66.9,29.90,SW,225,0.0,0.0,62,0.00,,---,0.00,VWS V14.01,2013-08-30 01:03:00,
2013-08-29 21:04:00,81.1,66.9,29.90,SW,225,0.0,0.0,62,0.00,,---,0.00,VWS V14.01,2013-08-30 01:04:00,
2013-08-29 21:06:00,80.9,67.1,29.90,SW,225,0.0,0.0,63,0.00,,---,0.00,VWS V14.01,2013-08-30 01:06:00,
2013-08-29 21:07:00,80.9,67.1,29.90,SW,225,0.0,0.0,63,0.00,,---,0.00,VWS V14.01,2013-08-30 01:07:00,
2013-08-29 21:08:00,80.9,67.1,29.90,SW,225,0.0,0.0,63,0.00,,---,0.00,VWS V14.01,2013-08-30 01:08:00,
2013-08-29 21:10:00,81.1,67.3,29.90,SW,225,0.0,0.0,63,0.00,,---,0.00,VWS V14.01,2013-08-30 01:10:00,
2013-08-29 21:12:00,81.1,67.3,29.90,SW,225,0.0,0.0,63,0.00,,---,0.00,VWS V14.01,2013-08-30 01:12:00,
2013-08-29 21:13:00,80.7,66.9,29.90,SW,225,0.0,0.0,63,0.00,,---,0.00,VWS V14.01,2013-08-30 01:13:00,
2013-08-29 21:15:00,80.7,67.4,29.90,SW,225,0.0,0.0,64,0.00,,---,0.00,VWS V14.01,2013-08-30 01:15:00,
2013-08-29 21:16:00,80.7,67.4,29.90,SW,225,0.0,0.0,64,0.00,,---,0.00,VWS V14.01,2013-08-30 01:16:00,
2013-08-29 21:17:00,80.5,67.2,29.91,SW,225,0.0,0.0,64,0.00,,---,0.00,VWS V14.01,2013-08-30 01:17:00,
2013-08-29 21:18:00,80.5,67.2,29.91,SW,225,0.0,0.0,64,0.00,,---,0.00,VWS V14.01,2013-08-30 01:18:00,
2013-08-29 21:21:00,80.7,67.8,29.91,SW,225,0.0,0.0,65,0.00,,---,0.00,VWS V14.01,2013-08-30 01:21:00,
2013-08-29 21:22:00,80.7,67.8,29.91,SW,225,0.0,0.0,65,0.00,,---,0.00,VWS V14.01,2013-08-30 01:22:00,
2013-08-29 21:23:00,80.5,67.7,29.91,SW,225,0.0,0.0,65,0.00,,---,0.00,VWS V14.01,2013-08-30 01:23:00,
2013-08-29 21:24:00,80.5,67.7,29.91,SW,225,0.0,0.0,65,0.00,,---,0.00,VWS V14.01,2013-08-30 01:24:00,
2013-08-29 21:27:00,80.5,67.7,29.91,SW,225,0.0,0.0,65,0.00,,---,0.00,VWS V14.01,2013-08-30 01:27:00,
2013-08-29 21:28:00,80.5,67.7,29.91,SW,225,0.0,0.0,65,0.00,,---,0.00,VWS V14.01,2013-08-30 01:28:00,
2013-08-29 21:29:00,80.4,67.6,29.91,SW,225,0.0,0.0,65,0.00,,---,0.00,VWS V14.01,2013-08-30 01:29:00,
2013-08-29 21:30:00,80.4,67.6,29.91,SW,225,0.0,0.0,65,0.00,,---,0.00,VWS V14.01,2013-08-30 01:30:00,
2013-08-29 21:32:00,80.4,67.6,29.91,SW,225,0.0,0.0,65,0.00,,---,0.00,VWS V14.01,2013-08-30 01:32:00,
2013-08-29 21:33:00,80.4,67.6,29.91,SW,225,0.0,0.0,65,0.00,,---,0.00,VWS V14.01,2013-08-30 01:33:00,
2013-08-29 21:34:00,80.4,67.6,29.91,SW,225,0.0,0.0,65,0.00,,---,0.00,VWS V14.01,2013-08-30 01:34:00,
2013-08-29 21:36:00,80.2,67.4,29.91,SW,225,0.0,0.0,65,0.00,,---,0.00,VWS V14.01,2013-08-30 01:36:00,
2013-08-29 21:38:00,80.0,67.2,29.91,SW,225,0.0,0.0,65,0.00,,---,0.00,VWS V14.01,2013-08-30 01:38:00,
2013-08-29 21:39:00,80.0,67.2,29.91,SW,225,0.0,0.0,65,0.00,,---,0.00,VWS V14.01,2013-08-30 01:39:00,
2013-08-29 21:42:00,80.0,67.2,29.91,SW,225,0.0,0.0,65,0.00,,---,0.00,VWS V14.01,2013-08-30 01:42:00,
2013-08-29 21:43:00,80.0,67.2,29.91,SW,225,0.0,0.0,65,0.00,,---,0.00,VWS V14.01,2013-08-30 01:43:00,
2013-08-29 21:44:00,79.8,67.0,29.92,SW,225,0.0,0.0,65,0.00,,---,0.00,VWS V14.01,2013-08-30 01:44:00,
2013-08-29 21:46:00,79.8,67.0,29.92,SW,225,0.0,0.0,65,0.00,,---,0.00,VWS V14.01,2013-08-30 01:46:00,
2013-08-29 21:48:00,79.8,66.6,29.91,SW,225,0.0,0.0,64,0.00,,---,0.00,VWS V14.01,2013-08-30 01:48:00,
2013-08-29 21:49:00,79.8,66.6,29.91,SW,225,0.0,0.0,64,0.00,,---,0.00,VWS V14.01,2013-08-30 01:49:00,
2013-08-29 21:50:00,79.8,66.6,29.91,SW,225,0.0,0.0,64,0.00,,---,0.00,VWS V14.01,2013-08-30 01:50:00,
2013-08-29 21:51:00,79.8,66.6,29.91,SW,225,0.0,0.0,64,0.00,,---,0.00,VWS V14.01,2013-08-30 01:51:00,
2013-08-29 21:54:00,79.8,66.6,29.91,SW,225,0.0,0.0,64,0.00,,---,0.00,VWS V14.01,2013-08-30 01:54:00,
2013-08-29 21:55:00,79.8,66.6,29.92,SW,225,0.0,0.0,64,0.00,,---,0.00,VWS V14.01,2013-08-30 01:55:00,
2013-08-29 21:56:00,79.8,66.6,29.92,SW,225,0.0,0.0,64,0.00,,---,0.00,VWS V14.01,2013-08-30 01:56:00,
2013-08-29 21:59:00,79.6,65.9,29.91,SW,225,0.0,0.0,63,0.00,,---,0.00,VWS V14.01,2013-08-30 01:59:00,
2013-08-29 22:00:00,79.6,65.9,29.92,SW,225,0.0,0.0,63,0.00,,---,0.00,VWS V14.01,2013-08-30 02:00:00,
2013-08-29 22:01:00,79.6,65.9,29.92,SW,225,0.0,0.0,63,0.00,,---,0.00,VWS V14.01,2013-08-30 02:01:00,
2013-08-29 22:04:00,79.6,65.9,29.92,SW,225,0.0,0.0,63,0.00,,---,0.00,VWS V14.01,2013-08-30 02:04:00,
2013-08-29 22:05:00,79.6,65.9,29.92,SW,225,0.0,0.0,63,0.00,,---,0.00,VWS V14.01,2013-08-30 02:05:00,
2013-08-29 22:06:00,79.6,65.9,29.92,SW,225,0.0,0.0,63,0.00,,---,0.00,VWS V14.01,2013-08-30 02:06:00,
2013-08-29 22:07:00,79.5,65.8,29.92,SW,225,0.0,0.0,63,0.00,,---,0.00,VWS V14.01,2013-08-30 02:07:00,
2013-08-29 22:09:00,79.5,65.8,29.91,SW,225,0.0,0.0,63,0.00,,---,0.00,VWS V14.01,2013-08-30 02:09:00,
2013-08-29 22:10:00,79.5,65.8,29.91,SW,225,0.0,0.0,63,0.00,,---,0.00,VWS V14.01,2013-08-30 02:10:00,
2013-08-29 22:11:00,79.5,65.8,29.91,SW,225,0.0,0.0,63,0.00,,---,0.00,VWS V14.01,2013-08-30 02:11:00,
2013-08-29 22:12:00,79.1,65.4,29.91,SW,225,0.0,0.0,63,0.00,,---,0.00,VWS V14.01,2013-08-30 02:12:00,
2013-08-29 22:13:00,79.1,65.4,29.91,SW,225,0.0,0.0,63,0.00,,---,0.00,VWS V14.01,2013-08-30 02:13:00,
2013-08-29 22:15:00,79.1,65.4,29.91,SW,225,0.0,0.0,63,0.00,,---,0.00,VWS V14.01,2013-08-30 02:15:00,
2013-08-29 22:17:00,79.1,65.4,29.91,SW,225,0.0,0.0,63,0.00,,---,0.00,VWS V14.01,2013-08-30 02:17:00,
2013-08-29 22:18:00,79.1,65.4,29.91,SW,225,0.0,0.0,63,0.00,,---,0.00,VWS V14.01,2013-08-30 02:18:00,
2013-08-29 22:19:00,79.1,65.4,29.91,SW,225,0.0,0.0,63,0.00,,---,0.00,VWS V14.01,2013-08-30 02:19:00,
2013-08-29 22:20:00,79.1,65.4,29.91,SW,225,0.0,0.0,63,0.00,,---,0.00,VWS V14.01,2013-08-30 02:20:00,
2013-08-29 22:21:00,79.1,65.4,29.91,SW,225,0.0,0.0,63,0.00,,---,0.00,VWS V14.01,2013-08-30 02:21:00,
2013-08-29 22:24:00,78.9,65.2,29.91,SW,225,0.0,0.0,63,0.00,,---,0.00,VWS V14.01,2013-08-30 02:24:00,
2013-08-29 22:25:00,79.1,65.9,29.91,SW,225,0.0,0.0,64,0.00,,---,0.00,VWS V14.01,2013-08-30 02:25:00,
2013-08-29 22:26:00,78.9,65.7,29.91,SW,225,0.0,0.0,64,0.00,,---,0.00,VWS V14.01,2013-08-30 02:26:00,
2013-08-29 22:29:00,78.9,65.7,29.91,SW,225,0.0,0.0,64,0.00,,---,0.00,VWS V14.01,2013-08-30 02:29:00,
2013-08-29 22:30:00,78.9,65.7,29.91,SW,225,0.0,0.0,64,0.00,,---,0.00,VWS V14.01,2013-08-30 02:30:00,
2013-08-29 22:31:00,78.9,65.7,29.92,SW,225,0.0,0.0,64,0.00,,---,0.00,VWS V14.01,2013-08-30 02:31:00,
2013-08-29 22:32:00,78.9,65.7,29.92,SW,225,0.0,0.0,64,0.00,,---,0.00,VWS V14.01,2013-08-30 02:32:00,
2013-08-29 22:35:00,78.7,66.0,29.92,SW,225,0.0,0.0,65,0.00,,---,0.00,VWS V14.01,2013-08-30 02:35:00,
2013-08-29 22:36:00,78.7,66.0,29.92,SW,225,0.0,0.0,65,0.00,,---,0.00,VWS V14.01,2013-08-30 02:36:00,
2013-08-29 22:37:00,78.7,66.0,29.91,SW,225,0.0,0.0,65,0.00,,---,0.00,VWS V14.01,2013-08-30 02:37:00,
2013-08-29 22:38:00,78.7,66.0,29.91,SW,225,0.0,0.0,65,0.00,,---,0.00,VWS V14.01,2013-08-30 02:38:00,
2013-08-29 22:40:00,78.6,65.9,29.92,SW,225,0.0,0.0,65,0.00,,---,0.00,VWS V14.01,2013-08-30 02:40:00,
2013-08-29 22:41:00,78.6,65.9,29.92,SW,225,0.0,0.0,65,0.00,,---,0.00,VWS V14.01,2013-08-30 02:41:00,
2013-08-29 22:42:00,78.7,66.0,29.92,SW,225,0.0,0.0,65,0.00,,---,0.00,VWS V14.01,2013-08-30 02:42:00,
2013-08-29 22:43:00,78.7,66.0,29.92,SW,225,0.0,0.0,65,0.00,,---,0.00,VWS V14.01,2013-08-30 02:43:00,
2013-08-29 22:44:00,78.7,66.0,29.92,SW,225,0.0,0.0,65,0.00,,---,0.00,VWS V14.01,2013-08-30 02:44:00,
2013-08-29 22:46:00,78.7,66.4,29.92,SW,225,0.0,0.0,66,0.00,,---,0.00,VWS V14.01,2013-08-30 02:46:00,
2013-08-29 22:47:00,78.6,66.3,29.92,SW,225,0.0,0.0,66,0.00,,---,0.00,VWS V14.01,2013-08-30 02:47:00,
2013-08-29 22:48:00,78.6,66.3,29.92,SW,225,0.0,0.0,66,0.00,,---,0.00,VWS V14.01,2013-08-30 02:48:00,
2013-08-29 22:50:00,78.6,66.3,29.92,SW,225,0.0,0.0,66,0.00,,---,0.00,VWS V14.01,2013-08-30 02:50:00,
2013-08-29 22:51:00,78.6,66.3,29.92,SW,225,0.0,0.0,66,0.00,,---,0.00,VWS V14.01,2013-08-30 02:51:00,
2013-08-29 22:52:00,78.6,66.3,29.92,SW,225,0.0,0.0,66,0.00,,---,0.00,VWS V14.01,2013-08-30 02:52:00,
2013-08-29 22:53:00,78.6,66.3,29.92,SW,225,0.0,0.0,66,0.00,,---,0.00,VWS V14.01,2013-08-30 02:53:00,
2013-08-29 22:54:00,78.7,66.4,29.91,SW,225,0.0,0.0,66,0.00,,---,0.00,VWS V14.01,2013-08-30 02:54:00,
2013-08-29 22:55:00,78.7,66.4,29.91,SW,225,0.0,0.0,66,0.00,,---,0.00,VWS V14.01,2013-08-30 02:55:00,
2013-08-29 22:56:00,78.7,66.4,29.91,SW,225,0.0,0.0,66,0.00,,---,0.00,VWS V14.01,2013-08-30 02:56:00,
2013-08-29 22:57:00,78.7,66.4,29.91,SW,225,0.0,0.0,66,0.00,,---,0.00,VWS V14.01,2013-08-30 02:57:00,
2013-08-29 22:58:00,78.7,66.4,29.91,SW,225,0.0,0.0,66,0.00,,---,0.00,VWS V14.01,2013-08-30 02:58:00,
2013-08-29 22:59:00,78.7,66.4,29.91,SW,225,0.0,0.0,66,0.00,,---,0.00,VWS V14.01,2013-08-30 02:59:00,
2013-08-29 23:01:00,78.7,66.4,29.91,SW,225,0.0,0.0,66,0.00,,---,0.00,VWS V14.01,2013-08-30 03:01:00,
2013-08-29 23:02:00,78.7,66.4,29.91,SW,225,0.0,0.0,66,0.00,,---,0.00,VWS V14.01,2013-08-30 03:02:00,
2013-08-29 23:03:00,78.7,66.4,29.91,SW,225,0.0,0.0,66,0.00,,---,0.00,VWS V14.01,2013-08-30 03:03:00,
2013-08-29 23:05:00,78.6,65.9,29.92,SW,225,0.0,0.0,65,0.00,,---,0.00,VWS V14.01,2013-08-30 03:05:00,
2013-08-29 23:07:00,78.4,65.7,29.91,SW,225,0.0,0.0,65,0.00,,---,0.00,VWS V14.01,2013-08-30 03:07:00,
2013-08-29 23:08:00,78.2,65.9,29.92,SW,225,0.0,0.0,66,0.00,,---,0.00,VWS V14.01,2013-08-30 03:08:00,
2013-08-29 23:09:00,78.2,65.9,29.92,SW,225,0.0,0.0,66,0.00,,---,0.00,VWS V14.01,2013-08-30 03:09:00,
2013-08-29 23:10:00,78.2,65.9,29.92,SW,225,0.0,0.0,66,0.00,,---,0.00,VWS V14.01,2013-08-30 03:10:00,
2013-08-29 23:12:00,78.2,65.9,29.92,SW,225,0.0,0.0,66,0.00,,---,0.00,VWS V14.01,2013-08-30 03:12:00,
2013-08-29 23:13:00,78.2,65.9,29.92,SW,225,0.0,0.0,66,0.00,,---,0.00,VWS V14.01,2013-08-30 03:13:00,
2013-08-29 23:14:00,78.2,65.9,29.92,SW,225,0.0,0.0,66,0.00,,---,0.00,VWS V14.01,2013-08-30 03:14:00,
2013-08-29 23:15:00,78.2,65.9,29.92,SW,225,0.0,0.0,66,0.00,,---,0.00,VWS V14.01,2013-08-30 03:15:00,
2013-08-29 23:16:00,78.2,65.9,29.92,SW,225,0.0,0.0,66,0.00,,---,0.00,VWS V14.01,2013-08-30 03:16:00,
2013-08-29 23:17:00,78.2,65.9,29.92,SW,225,0.0,0.0,66,0.00,,---,0.00,VWS V14.01,2013-08-30 03:17:00,
2013-08-29 23:18:00,78.2,65.9,29.92,SW,225,0.0,0.0,66,0.00,,---,0.00,VWS V14.01,2013-08-30 03:18:00,
2013-08-29 23:19:00,78.2,65.9,29.92,SW,225,0.0,0.0,66,0.00,,---,0.00,VWS V14.01,2013-08-30 03:19:00,
2013-08-29 23:20:00,78.2,66.4,29.92,SW,225,0.0,0.0,67,0.00,,---,0.00,VWS V14.01,2013-08-30 03:20:00,
2013-08-29 23:21:00,78.2,66.4,29.92,SW,225,0.0,0.0,67,0.00,,---,0.00,VWS V14.01,2013-08-30 03:21:00,
2013-08-29 23:22:00,78.0,65.7,29.92,SW,225,0.0,0.0,66,0.00,,---,0.00,VWS V14.01,2013-08-30 03:22:00,
2013-08-29 23:23:00,78.0,65.7,29.92,SW,225,0.0,0.0,66,0.00,,---,0.00,VWS V14.01,2013-08-30 03:23:00,
2013-08-29 23:24:00,78.0,65.7,29.91,SW,225,0.0,0.0,66,0.00,,---,0.00,VWS V14.01,2013-08-30 03:24:00,
2013-08-29 23:25:00,78.0,65.7,29.91,SW,225,0.0,0.0,66,0.00,,---,0.00,VWS V14.01,2013-08-30 03:25:00,
2013-08-29 23:27:00,78.0,65.7,29.91,SW,225,0.0,0.0,66,0.00,,---,0.00,VWS V14.01,2013-08-30 03:27:00,
2013-08-29 23:28:00,78.0,65.7,29.91,SW,225,0.0,0.0,66,0.00,,---,0.00,VWS V14.01,2013-08-30 03:28:00,
2013-08-29 23:30:00,78.0,65.7,29.92,SW,225,0.0,0.0,66,0.00,,---,0.00,VWS V14.01,2013-08-30 03:30:00,
2013-08-29 23:32:00,78.0,65.7,29.92,SW,225,0.0,0.0,66,0.00,,---,0.00,VWS V14.01,2013-08-30 03:32:00,
2013-08-29 23:33:00,78.0,65.7,29.92,SW,225,0.0,0.0,66,0.00,,---,0.00,VWS V14.01,2013-08-30 03:33:00,
2013-08-29 23:35:00,78.0,65.7,29.92,SW,225,0.0,0.0,66,0.00,,---,0.00,VWS V14.01,2013-08-30 03:35:00,
2013-08-29 23:36:00,78.0,65.7,29.92,SW,225,0.0,0.0,66,0.00,,---,0.00,VWS V14.01,2013-08-30 03:36:00,
2013-08-29 23:38:00,77.8,65.5,29.91,SW,225,0.0,0.0,66,0.00,,---,0.00,VWS V14.01,2013-08-30 03:38:00,
2013-08-29 23:39:00,77.7,65.4,29.92,SW,225,0.0,0.0,66,0.00,,---,0.00,VWS V14.01,2013-08-30 03:39:00,
2013-08-29 23:40:00,77.7,65.4,29.92,SW,225,0.0,0.0,66,0.00,,---,0.00,VWS V14.01,2013-08-30 03:40:00,
2013-08-29 23:41:00,77.7,65.4,29.92,SW,225,0.0,0.0,66,0.00,,---,0.00,VWS V14.01,2013-08-30 03:41:00,
2013-08-29 23:43:00,77.8,65.5,29.92,SW,225,0.0,0.0,66,0.00,,---,0.00,VWS V14.01,2013-08-30 03:43:00,
2013-08-29 23:45:00,77.7,65.4,29.92,SW,225,0.0,0.0,66,0.00,,---,0.00,VWS V14.01,2013-08-30 03:45:00,
2013-08-29 23:46:00,77.7,65.4,29.91,SW,225,0.0,0.0,66,0.00,,---,0.00,VWS V14.01,2013-08-30 03:46:00,
2013-08-29 23:48:00,77.7,65.4,29.91,SW,225,0.0,0.0,66,0.00,,---,0.00,VWS V14.01,2013-08-30 03:48:00,
2013-08-29 23:49:00,77.7,65.4,29.91,SW,225,0.0,0.0,66,0.00,,---,0.00,VWS V14.01,2013-08-30 03:49:00,
2013-08-29 23:50:00,77.7,65.4,29.91,SW,225,0.0,0.0,66,0.00,,---,0.00,VWS V14.01,2013-08-30 03:50:00,
2013-08-29 23:51:00,77.7,65.4,29.91,SW,225,0.0,0.0,66,0.00,,---,0.00,VWS V14.01,2013-08-30 03:51:00,
2013-08-29 23:52:00,77.7,65.4,29.91,SW,225,0.0,0.0,66,0.00,,---,0.00,VWS V14.01,2013-08-30 03:52:00,
2013-08-29 23:54:00,77.7,65.4,29.91,SW,225,0.0,0.0,66,0.00,,---,0.00,VWS V14.01,2013-08-30 03:54:00,
2013-08-29 23:55:00,77.5,65.3,29.92,SW,225,0.0,0.0,66,0.00,,---,0.00,VWS V14.01,2013-08-30 03:55:00,
2013-08-29 23:56:00,77.7,65.9,29.91,SW,225,0.0,0.0,67,0.00,,---,0.00,VWS V14.01,2013-08-30 03:56:00,
2013-08-29 23:57:00,77.7,65.9,29.91,SW,225,0.0,0.0,67,0.00,,---,0.00,VWS V14.01,2013-08-30 03:57:00,
2013-08-29 23:59:00,77.3,65.5,29.92,SW,225,0.0,0.0,67,0.00,,---,0.00,VWS V14.01,2013-08-30 03:59:00,